<?xml version="1.0" encoding="UTF-8" standalone="no" ?>
<gpx xmlns="http://www.topografix.com/GPX/1/1" xmlns:xsi="http://www.w3.org/2001/XMLSchema-instance" xsi:schemaLocation="http://www.topografix.com/GPX/1/1 http://www.topografix.com/GPX/1/1/gpx.xsd" version="1.1" creator="VisuGPX - https://www.visugpx.com">
  <metadata>
    <name>refuge de Pinet en boucle ,en passant par cascade de lartigue-2020-08-24-144842</name>
    <desc><![CDATA[[b][i][url][img][/img][/url][/i][/b]]]></desc>
  </metadata>
  <trk>
    <name><![CDATA[MA-Rando-2020-08-24-144842]]></name>
    <trkseg>
      <trkpt lat="42.71017" lon="1.42587">
        <ele>1167</ele>
        <time>2020-08-24T06:48:49Z</time>
      </trkpt>
      <trkpt lat="42.71015" lon="1.42573">
        <ele>1167</ele>
        <time>2020-08-24T06:48:57Z</time>
      </trkpt>
      <trkpt lat="42.71017" lon="1.42561">
        <ele>1166</ele>
        <time>2020-08-24T06:49:07Z</time>
      </trkpt>
      <trkpt lat="42.71013" lon="1.42544">
        <ele>1171</ele>
        <time>2020-08-24T06:49:29Z</time>
      </trkpt>
      <trkpt lat="42.71027" lon="1.42554">
        <ele>1175</ele>
        <time>2020-08-24T06:50:06Z</time>
      </trkpt>
      <trkpt lat="42.71031" lon="1.42542">
        <ele>1184</ele>
        <time>2020-08-24T06:50:39Z</time>
      </trkpt>
      <trkpt lat="42.71032" lon="1.42529">
        <ele>1188</ele>
        <time>2020-08-24T06:50:51Z</time>
      </trkpt>
      <trkpt lat="42.71034" lon="1.42517">
        <ele>1189</ele>
        <time>2020-08-24T06:51:40Z</time>
      </trkpt>
      <trkpt lat="42.71031" lon="1.42504">
        <ele>1189</ele>
        <time>2020-08-24T06:51:46Z</time>
      </trkpt>
      <trkpt lat="42.71025" lon="1.42491">
        <ele>1189</ele>
        <time>2020-08-24T06:51:53Z</time>
      </trkpt>
      <trkpt lat="42.71019" lon="1.4248">
        <ele>1187</ele>
        <time>2020-08-24T06:52:00Z</time>
      </trkpt>
      <trkpt lat="42.71015" lon="1.42468">
        <ele>1185</ele>
        <time>2020-08-24T06:52:10Z</time>
      </trkpt>
      <trkpt lat="42.71008" lon="1.4246">
        <ele>1185</ele>
        <time>2020-08-24T06:53:00Z</time>
      </trkpt>
      <trkpt lat="42.70998" lon="1.42457">
        <ele>1181</ele>
        <time>2020-08-24T06:53:17Z</time>
      </trkpt>
      <trkpt lat="42.70991" lon="1.42446">
        <ele>1179</ele>
        <time>2020-08-24T06:53:24Z</time>
      </trkpt>
      <trkpt lat="42.70987" lon="1.42435">
        <ele>1178</ele>
        <time>2020-08-24T06:53:29Z</time>
      </trkpt>
      <trkpt lat="42.70985" lon="1.42422">
        <ele>1177</ele>
        <time>2020-08-24T06:53:34Z</time>
      </trkpt>
      <trkpt lat="42.70986" lon="1.42405">
        <ele>1180</ele>
        <time>2020-08-24T06:53:39Z</time>
      </trkpt>
      <trkpt lat="42.70986" lon="1.42393">
        <ele>1183</ele>
        <time>2020-08-24T06:53:44Z</time>
      </trkpt>
      <trkpt lat="42.70986" lon="1.42379">
        <ele>1182</ele>
        <time>2020-08-24T06:53:49Z</time>
      </trkpt>
      <trkpt lat="42.70986" lon="1.42365">
        <ele>1185</ele>
        <time>2020-08-24T06:53:56Z</time>
      </trkpt>
      <trkpt lat="42.70983" lon="1.42353">
        <ele>1185</ele>
        <time>2020-08-24T06:54:05Z</time>
      </trkpt>
      <trkpt lat="42.70979" lon="1.42341">
        <ele>1187</ele>
        <time>2020-08-24T06:54:13Z</time>
      </trkpt>
      <trkpt lat="42.70976" lon="1.42328">
        <ele>1186</ele>
        <time>2020-08-24T06:54:21Z</time>
      </trkpt>
      <trkpt lat="42.70972" lon="1.42315">
        <ele>1187</ele>
        <time>2020-08-24T06:54:29Z</time>
      </trkpt>
      <trkpt lat="42.70968" lon="1.42303">
        <ele>1185</ele>
        <time>2020-08-24T06:54:37Z</time>
      </trkpt>
      <trkpt lat="42.70965" lon="1.42291">
        <ele>1183</ele>
        <time>2020-08-24T06:54:44Z</time>
      </trkpt>
      <trkpt lat="42.70964" lon="1.42278">
        <ele>1184</ele>
        <time>2020-08-24T06:54:52Z</time>
      </trkpt>
      <trkpt lat="42.70964" lon="1.42266">
        <ele>1184</ele>
        <time>2020-08-24T06:55:00Z</time>
      </trkpt>
      <trkpt lat="42.70964" lon="1.42252">
        <ele>1185</ele>
        <time>2020-08-24T06:55:09Z</time>
      </trkpt>
      <trkpt lat="42.70963" lon="1.42239">
        <ele>1185</ele>
        <time>2020-08-24T06:55:19Z</time>
      </trkpt>
      <trkpt lat="42.70962" lon="1.42226">
        <ele>1182</ele>
        <time>2020-08-24T06:55:27Z</time>
      </trkpt>
      <trkpt lat="42.70961" lon="1.42212">
        <ele>1187</ele>
        <time>2020-08-24T06:55:35Z</time>
      </trkpt>
      <trkpt lat="42.70961" lon="1.42199">
        <ele>1187</ele>
        <time>2020-08-24T06:55:44Z</time>
      </trkpt>
      <trkpt lat="42.70959" lon="1.42185">
        <ele>1185</ele>
        <time>2020-08-24T06:55:52Z</time>
      </trkpt>
      <trkpt lat="42.70955" lon="1.42172">
        <ele>1187</ele>
        <time>2020-08-24T06:56:00Z</time>
      </trkpt>
      <trkpt lat="42.70948" lon="1.42162">
        <ele>1187</ele>
        <time>2020-08-24T06:56:07Z</time>
      </trkpt>
      <trkpt lat="42.70941" lon="1.42152">
        <ele>1189</ele>
        <time>2020-08-24T06:56:16Z</time>
      </trkpt>
      <trkpt lat="42.70939" lon="1.4214">
        <ele>1187</ele>
        <time>2020-08-24T06:56:26Z</time>
      </trkpt>
      <trkpt lat="42.70941" lon="1.42128">
        <ele>1187</ele>
        <time>2020-08-24T06:56:36Z</time>
      </trkpt>
      <trkpt lat="42.7094" lon="1.42115">
        <ele>1188</ele>
        <time>2020-08-24T06:56:49Z</time>
      </trkpt>
      <trkpt lat="42.70937" lon="1.42103">
        <ele>1195</ele>
        <time>2020-08-24T06:57:04Z</time>
      </trkpt>
      <trkpt lat="42.70935" lon="1.4209">
        <ele>1195</ele>
        <time>2020-08-24T06:57:16Z</time>
      </trkpt>
      <trkpt lat="42.70935" lon="1.42078">
        <ele>1195</ele>
        <time>2020-08-24T06:57:28Z</time>
      </trkpt>
      <trkpt lat="42.70933" lon="1.42065">
        <ele>1189</ele>
        <time>2020-08-24T06:57:40Z</time>
      </trkpt>
      <trkpt lat="42.7093" lon="1.42054">
        <ele>1186</ele>
        <time>2020-08-24T06:57:57Z</time>
      </trkpt>
      <trkpt lat="42.70932" lon="1.4204">
        <ele>1187</ele>
        <time>2020-08-24T06:58:05Z</time>
      </trkpt>
      <trkpt lat="42.70932" lon="1.42027">
        <ele>1190</ele>
        <time>2020-08-24T06:58:13Z</time>
      </trkpt>
      <trkpt lat="42.70929" lon="1.42015">
        <ele>1192</ele>
        <time>2020-08-24T06:58:21Z</time>
      </trkpt>
      <trkpt lat="42.70924" lon="1.42003">
        <ele>1194</ele>
        <time>2020-08-24T06:58:28Z</time>
      </trkpt>
      <trkpt lat="42.70922" lon="1.41989">
        <ele>1196</ele>
        <time>2020-08-24T06:58:37Z</time>
      </trkpt>
      <trkpt lat="42.70923" lon="1.41976">
        <ele>1198</ele>
        <time>2020-08-24T06:58:44Z</time>
      </trkpt>
      <trkpt lat="42.70923" lon="1.41963">
        <ele>1203</ele>
        <time>2020-08-24T06:58:53Z</time>
      </trkpt>
      <trkpt lat="42.70924" lon="1.4195">
        <ele>1203</ele>
        <time>2020-08-24T06:59:02Z</time>
      </trkpt>
      <trkpt lat="42.70926" lon="1.41937">
        <ele>1206</ele>
        <time>2020-08-24T06:59:12Z</time>
      </trkpt>
      <trkpt lat="42.7093" lon="1.41925">
        <ele>1207</ele>
        <time>2020-08-24T06:59:21Z</time>
      </trkpt>
      <trkpt lat="42.70935" lon="1.41914">
        <ele>1207</ele>
        <time>2020-08-24T06:59:30Z</time>
      </trkpt>
      <trkpt lat="42.70936" lon="1.41901">
        <ele>1205</ele>
        <time>2020-08-24T06:59:38Z</time>
      </trkpt>
      <trkpt lat="42.70935" lon="1.41889">
        <ele>1205</ele>
        <time>2020-08-24T06:59:49Z</time>
      </trkpt>
      <trkpt lat="42.70933" lon="1.41876">
        <ele>1208</ele>
        <time>2020-08-24T07:00:01Z</time>
      </trkpt>
      <trkpt lat="42.70928" lon="1.41863">
        <ele>1210</ele>
        <time>2020-08-24T07:00:10Z</time>
      </trkpt>
      <trkpt lat="42.70926" lon="1.4185">
        <ele>1206</ele>
        <time>2020-08-24T07:00:20Z</time>
      </trkpt>
      <trkpt lat="42.70936" lon="1.41856">
        <ele>1203</ele>
        <time>2020-08-24T07:00:58Z</time>
      </trkpt>
      <trkpt lat="42.70935" lon="1.41843">
        <ele>1206</ele>
        <time>2020-08-24T07:01:49Z</time>
      </trkpt>
      <trkpt lat="42.70934" lon="1.41829">
        <ele>1204</ele>
        <time>2020-08-24T07:01:58Z</time>
      </trkpt>
      <trkpt lat="42.70931" lon="1.41815">
        <ele>1210</ele>
        <time>2020-08-24T07:02:05Z</time>
      </trkpt>
      <trkpt lat="42.70929" lon="1.41802">
        <ele>1209</ele>
        <time>2020-08-24T07:02:12Z</time>
      </trkpt>
      <trkpt lat="42.70932" lon="1.41789">
        <ele>1207</ele>
        <time>2020-08-24T07:02:21Z</time>
      </trkpt>
      <trkpt lat="42.70937" lon="1.41777">
        <ele>1212</ele>
        <time>2020-08-24T07:02:32Z</time>
      </trkpt>
      <trkpt lat="42.70936" lon="1.41764">
        <ele>1213</ele>
        <time>2020-08-24T07:02:45Z</time>
      </trkpt>
      <trkpt lat="42.70929" lon="1.41755">
        <ele>1211</ele>
        <time>2020-08-24T07:02:54Z</time>
      </trkpt>
      <trkpt lat="42.70921" lon="1.41747">
        <ele>1212</ele>
        <time>2020-08-24T07:03:03Z</time>
      </trkpt>
      <trkpt lat="42.70915" lon="1.41739">
        <ele>1214</ele>
        <time>2020-08-24T07:03:12Z</time>
      </trkpt>
      <trkpt lat="42.70907" lon="1.41729">
        <ele>1214</ele>
        <time>2020-08-24T07:03:21Z</time>
      </trkpt>
      <trkpt lat="42.70901" lon="1.4172">
        <ele>1214</ele>
        <time>2020-08-24T07:03:30Z</time>
      </trkpt>
      <trkpt lat="42.70896" lon="1.41708">
        <ele>1216</ele>
        <time>2020-08-24T07:03:41Z</time>
      </trkpt>
      <trkpt lat="42.70893" lon="1.41696">
        <ele>1213</ele>
        <time>2020-08-24T07:03:54Z</time>
      </trkpt>
      <trkpt lat="42.70888" lon="1.41685">
        <ele>1213</ele>
        <time>2020-08-24T07:04:18Z</time>
      </trkpt>
      <trkpt lat="42.70884" lon="1.41673">
        <ele>1210</ele>
        <time>2020-08-24T07:04:31Z</time>
      </trkpt>
      <trkpt lat="42.70887" lon="1.4166">
        <ele>1215</ele>
        <time>2020-08-24T07:04:39Z</time>
      </trkpt>
      <trkpt lat="42.70889" lon="1.41647">
        <ele>1222</ele>
        <time>2020-08-24T07:04:47Z</time>
      </trkpt>
      <trkpt lat="42.70891" lon="1.41634">
        <ele>1222</ele>
        <time>2020-08-24T07:04:54Z</time>
      </trkpt>
      <trkpt lat="42.70892" lon="1.41621">
        <ele>1228</ele>
        <time>2020-08-24T07:05:04Z</time>
      </trkpt>
      <trkpt lat="42.70892" lon="1.41609">
        <ele>1227</ele>
        <time>2020-08-24T07:05:12Z</time>
      </trkpt>
      <trkpt lat="42.70893" lon="1.41596">
        <ele>1230</ele>
        <time>2020-08-24T07:05:21Z</time>
      </trkpt>
      <trkpt lat="42.70894" lon="1.41583">
        <ele>1232</ele>
        <time>2020-08-24T07:05:29Z</time>
      </trkpt>
      <trkpt lat="42.70896" lon="1.41571">
        <ele>1234</ele>
        <time>2020-08-24T07:05:39Z</time>
      </trkpt>
      <trkpt lat="42.70898" lon="1.41559">
        <ele>1232</ele>
        <time>2020-08-24T07:05:48Z</time>
      </trkpt>
      <trkpt lat="42.70902" lon="1.41547">
        <ele>1237</ele>
        <time>2020-08-24T07:06:02Z</time>
      </trkpt>
      <trkpt lat="42.70899" lon="1.41534">
        <ele>1237</ele>
        <time>2020-08-24T07:06:18Z</time>
      </trkpt>
      <trkpt lat="42.70892" lon="1.41525">
        <ele>1243</ele>
        <time>2020-08-24T07:07:04Z</time>
      </trkpt>
      <trkpt lat="42.70886" lon="1.41515">
        <ele>1245</ele>
        <time>2020-08-24T07:07:22Z</time>
      </trkpt>
      <trkpt lat="42.70882" lon="1.41503">
        <ele>1245</ele>
        <time>2020-08-24T07:07:32Z</time>
      </trkpt>
      <trkpt lat="42.70882" lon="1.41491">
        <ele>1247</ele>
        <time>2020-08-24T07:07:40Z</time>
      </trkpt>
      <trkpt lat="42.70884" lon="1.41478">
        <ele>1248</ele>
        <time>2020-08-24T07:07:48Z</time>
      </trkpt>
      <trkpt lat="42.70885" lon="1.41464">
        <ele>1249</ele>
        <time>2020-08-24T07:07:56Z</time>
      </trkpt>
      <trkpt lat="42.70882" lon="1.41451">
        <ele>1247</ele>
        <time>2020-08-24T07:08:05Z</time>
      </trkpt>
      <trkpt lat="42.70876" lon="1.4144">
        <ele>1247</ele>
        <time>2020-08-24T07:08:14Z</time>
      </trkpt>
      <trkpt lat="42.70872" lon="1.41428">
        <ele>1245</ele>
        <time>2020-08-24T07:08:24Z</time>
      </trkpt>
      <trkpt lat="42.70869" lon="1.41417">
        <ele>1250</ele>
        <time>2020-08-24T07:08:34Z</time>
      </trkpt>
      <trkpt lat="42.7087" lon="1.41404">
        <ele>1256</ele>
        <time>2020-08-24T07:08:45Z</time>
      </trkpt>
      <trkpt lat="42.70878" lon="1.41396">
        <ele>1256</ele>
        <time>2020-08-24T07:08:55Z</time>
      </trkpt>
      <trkpt lat="42.70883" lon="1.41379">
        <ele>1262</ele>
        <time>2020-08-24T07:09:19Z</time>
      </trkpt>
      <trkpt lat="42.70884" lon="1.41367">
        <ele>1268</ele>
        <time>2020-08-24T07:09:37Z</time>
      </trkpt>
      <trkpt lat="42.70887" lon="1.41381">
        <ele>1270</ele>
        <time>2020-08-24T07:11:55Z</time>
      </trkpt>
      <trkpt lat="42.70887" lon="1.41366">
        <ele>1267</ele>
        <time>2020-08-24T07:12:17Z</time>
      </trkpt>
      <trkpt lat="42.70883" lon="1.41352">
        <ele>1265</ele>
        <time>2020-08-24T07:12:21Z</time>
      </trkpt>
      <trkpt lat="42.70879" lon="1.41337">
        <ele>1266</ele>
        <time>2020-08-24T07:12:24Z</time>
      </trkpt>
      <trkpt lat="42.70875" lon="1.41323">
        <ele>1269</ele>
        <time>2020-08-24T07:12:27Z</time>
      </trkpt>
      <trkpt lat="42.70874" lon="1.4131">
        <ele>1271</ele>
        <time>2020-08-24T07:12:31Z</time>
      </trkpt>
      <trkpt lat="42.70877" lon="1.41297">
        <ele>1271</ele>
        <time>2020-08-24T07:12:35Z</time>
      </trkpt>
      <trkpt lat="42.70882" lon="1.41287">
        <ele>1270</ele>
        <time>2020-08-24T07:12:39Z</time>
      </trkpt>
      <trkpt lat="42.70887" lon="1.41275">
        <ele>1268</ele>
        <time>2020-08-24T07:12:45Z</time>
      </trkpt>
      <trkpt lat="42.70889" lon="1.41262">
        <ele>1278</ele>
        <time>2020-08-24T07:12:55Z</time>
      </trkpt>
      <trkpt lat="42.70888" lon="1.4125">
        <ele>1280</ele>
        <time>2020-08-24T07:13:03Z</time>
      </trkpt>
      <trkpt lat="42.70891" lon="1.41238">
        <ele>1282</ele>
        <time>2020-08-24T07:13:12Z</time>
      </trkpt>
      <trkpt lat="42.7089" lon="1.41225">
        <ele>1282</ele>
        <time>2020-08-24T07:13:21Z</time>
      </trkpt>
      <trkpt lat="42.7089" lon="1.41212">
        <ele>1283</ele>
        <time>2020-08-24T07:13:29Z</time>
      </trkpt>
      <trkpt lat="42.70892" lon="1.412">
        <ele>1279</ele>
        <time>2020-08-24T07:13:39Z</time>
      </trkpt>
      <trkpt lat="42.70894" lon="1.41187">
        <ele>1280</ele>
        <time>2020-08-24T07:13:48Z</time>
      </trkpt>
      <trkpt lat="42.70895" lon="1.41173">
        <ele>1278</ele>
        <time>2020-08-24T07:13:58Z</time>
      </trkpt>
      <trkpt lat="42.70896" lon="1.4116">
        <ele>1278</ele>
        <time>2020-08-24T07:14:07Z</time>
      </trkpt>
      <trkpt lat="42.70898" lon="1.41146">
        <ele>1286</ele>
        <time>2020-08-24T07:14:16Z</time>
      </trkpt>
      <trkpt lat="42.70905" lon="1.41136">
        <ele>1286</ele>
        <time>2020-08-24T07:14:24Z</time>
      </trkpt>
      <trkpt lat="42.70912" lon="1.41127">
        <ele>1287</ele>
        <time>2020-08-24T07:14:32Z</time>
      </trkpt>
      <trkpt lat="42.70918" lon="1.41117">
        <ele>1289</ele>
        <time>2020-08-24T07:14:42Z</time>
      </trkpt>
      <trkpt lat="42.70924" lon="1.41107">
        <ele>1287</ele>
        <time>2020-08-24T07:14:51Z</time>
      </trkpt>
      <trkpt lat="42.70927" lon="1.41095">
        <ele>1286</ele>
        <time>2020-08-24T07:14:59Z</time>
      </trkpt>
      <trkpt lat="42.70929" lon="1.41081">
        <ele>1285</ele>
        <time>2020-08-24T07:15:09Z</time>
      </trkpt>
      <trkpt lat="42.70925" lon="1.41069">
        <ele>1285</ele>
        <time>2020-08-24T07:15:16Z</time>
      </trkpt>
      <trkpt lat="42.70921" lon="1.41057">
        <ele>1286</ele>
        <time>2020-08-24T07:15:24Z</time>
      </trkpt>
      <trkpt lat="42.70918" lon="1.41044">
        <ele>1285</ele>
        <time>2020-08-24T07:15:33Z</time>
      </trkpt>
      <trkpt lat="42.70913" lon="1.41033">
        <ele>1287</ele>
        <time>2020-08-24T07:15:42Z</time>
      </trkpt>
      <trkpt lat="42.70906" lon="1.41024">
        <ele>1290</ele>
        <time>2020-08-24T07:15:51Z</time>
      </trkpt>
      <trkpt lat="42.70899" lon="1.41016">
        <ele>1290</ele>
        <time>2020-08-24T07:16:00Z</time>
      </trkpt>
      <trkpt lat="42.70896" lon="1.41003">
        <ele>1291</ele>
        <time>2020-08-24T07:16:11Z</time>
      </trkpt>
      <trkpt lat="42.70892" lon="1.40991">
        <ele>1296</ele>
        <time>2020-08-24T07:16:21Z</time>
      </trkpt>
      <trkpt lat="42.70889" lon="1.40979">
        <ele>1297</ele>
        <time>2020-08-24T07:16:29Z</time>
      </trkpt>
      <trkpt lat="42.70886" lon="1.40966">
        <ele>1296</ele>
        <time>2020-08-24T07:16:36Z</time>
      </trkpt>
      <trkpt lat="42.70884" lon="1.40953">
        <ele>1296</ele>
        <time>2020-08-24T07:16:44Z</time>
      </trkpt>
      <trkpt lat="42.70888" lon="1.4094">
        <ele>1295</ele>
        <time>2020-08-24T07:16:50Z</time>
      </trkpt>
      <trkpt lat="42.70888" lon="1.40927">
        <ele>1295</ele>
        <time>2020-08-24T07:16:58Z</time>
      </trkpt>
      <trkpt lat="42.70882" lon="1.40916">
        <ele>1300</ele>
        <time>2020-08-24T07:17:07Z</time>
      </trkpt>
      <trkpt lat="42.70879" lon="1.40904">
        <ele>1297</ele>
        <time>2020-08-24T07:17:17Z</time>
      </trkpt>
      <trkpt lat="42.70879" lon="1.40891">
        <ele>1297</ele>
        <time>2020-08-24T07:17:28Z</time>
      </trkpt>
      <trkpt lat="42.70876" lon="1.40878">
        <ele>1298</ele>
        <time>2020-08-24T07:17:39Z</time>
      </trkpt>
      <trkpt lat="42.70872" lon="1.40867">
        <ele>1297</ele>
        <time>2020-08-24T07:17:51Z</time>
      </trkpt>
      <trkpt lat="42.70869" lon="1.40854">
        <ele>1293</ele>
        <time>2020-08-24T07:18:01Z</time>
      </trkpt>
      <trkpt lat="42.70867" lon="1.40841">
        <ele>1287</ele>
        <time>2020-08-24T07:18:13Z</time>
      </trkpt>
      <trkpt lat="42.70867" lon="1.40827">
        <ele>1289</ele>
        <time>2020-08-24T07:18:29Z</time>
      </trkpt>
      <trkpt lat="42.70862" lon="1.40817">
        <ele>1283</ele>
        <time>2020-08-24T07:18:48Z</time>
      </trkpt>
      <trkpt lat="42.70851" lon="1.40808">
        <ele>1286</ele>
        <time>2020-08-24T07:20:25Z</time>
      </trkpt>
      <trkpt lat="42.70858" lon="1.40797">
        <ele>1282</ele>
        <time>2020-08-24T07:20:38Z</time>
      </trkpt>
      <trkpt lat="42.70867" lon="1.40794">
        <ele>1286</ele>
        <time>2020-08-24T07:20:49Z</time>
      </trkpt>
      <trkpt lat="42.70871" lon="1.40782">
        <ele>1284</ele>
        <time>2020-08-24T07:21:03Z</time>
      </trkpt>
      <trkpt lat="42.70872" lon="1.40766">
        <ele>1289</ele>
        <time>2020-08-24T07:21:30Z</time>
      </trkpt>
      <trkpt lat="42.70865" lon="1.40758">
        <ele>1291</ele>
        <time>2020-08-24T07:21:43Z</time>
      </trkpt>
      <trkpt lat="42.70877" lon="1.40762">
        <ele>1302</ele>
        <time>2020-08-24T07:22:36Z</time>
      </trkpt>
      <trkpt lat="42.7088" lon="1.40775">
        <ele>1304</ele>
        <time>2020-08-24T07:22:45Z</time>
      </trkpt>
      <trkpt lat="42.70871" lon="1.40765">
        <ele>1302</ele>
        <time>2020-08-24T07:23:52Z</time>
      </trkpt>
      <trkpt lat="42.7087" lon="1.40752">
        <ele>1299</ele>
        <time>2020-08-24T07:24:03Z</time>
      </trkpt>
      <trkpt lat="42.7087" lon="1.40739">
        <ele>1302</ele>
        <time>2020-08-24T07:24:12Z</time>
      </trkpt>
      <trkpt lat="42.70863" lon="1.40728">
        <ele>1302</ele>
        <time>2020-08-24T07:24:21Z</time>
      </trkpt>
      <trkpt lat="42.70858" lon="1.40717">
        <ele>1306</ele>
        <time>2020-08-24T07:24:32Z</time>
      </trkpt>
      <trkpt lat="42.70854" lon="1.40706">
        <ele>1309</ele>
        <time>2020-08-24T07:24:43Z</time>
      </trkpt>
      <trkpt lat="42.70848" lon="1.40696">
        <ele>1309</ele>
        <time>2020-08-24T07:24:54Z</time>
      </trkpt>
      <trkpt lat="42.70846" lon="1.40683">
        <ele>1307</ele>
        <time>2020-08-24T07:25:07Z</time>
      </trkpt>
      <trkpt lat="42.70843" lon="1.40671">
        <ele>1311</ele>
        <time>2020-08-24T07:25:30Z</time>
      </trkpt>
      <trkpt lat="42.70838" lon="1.40661">
        <ele>1313</ele>
        <time>2020-08-24T07:25:41Z</time>
      </trkpt>
      <trkpt lat="42.70836" lon="1.40642">
        <ele>1314</ele>
        <time>2020-08-24T07:26:01Z</time>
      </trkpt>
      <trkpt lat="42.70834" lon="1.40629">
        <ele>1315</ele>
        <time>2020-08-24T07:26:12Z</time>
      </trkpt>
      <trkpt lat="42.70835" lon="1.40617">
        <ele>1316</ele>
        <time>2020-08-24T07:26:44Z</time>
      </trkpt>
      <trkpt lat="42.70826" lon="1.40603">
        <ele>1316</ele>
        <time>2020-08-24T07:27:03Z</time>
      </trkpt>
      <trkpt lat="42.70817" lon="1.40599">
        <ele>1314</ele>
        <time>2020-08-24T07:27:14Z</time>
      </trkpt>
      <trkpt lat="42.70804" lon="1.40592">
        <ele>1318</ele>
        <time>2020-08-24T07:27:54Z</time>
      </trkpt>
      <trkpt lat="42.70797" lon="1.40586">
        <ele>1326</ele>
        <time>2020-08-24T07:28:14Z</time>
      </trkpt>
      <trkpt lat="42.70788" lon="1.40582">
        <ele>1331</ele>
        <time>2020-08-24T07:28:29Z</time>
      </trkpt>
      <trkpt lat="42.70781" lon="1.40574">
        <ele>1335</ele>
        <time>2020-08-24T07:28:46Z</time>
      </trkpt>
      <trkpt lat="42.70774" lon="1.40567">
        <ele>1340</ele>
        <time>2020-08-24T07:29:10Z</time>
      </trkpt>
      <trkpt lat="42.70767" lon="1.40551">
        <ele>1341</ele>
        <time>2020-08-24T07:29:36Z</time>
      </trkpt>
      <trkpt lat="42.70769" lon="1.40539">
        <ele>1342</ele>
        <time>2020-08-24T07:29:52Z</time>
      </trkpt>
      <trkpt lat="42.70773" lon="1.40526">
        <ele>1344</ele>
        <time>2020-08-24T07:29:58Z</time>
      </trkpt>
      <trkpt lat="42.70775" lon="1.40509">
        <ele>1348</ele>
        <time>2020-08-24T07:30:12Z</time>
      </trkpt>
      <trkpt lat="42.70769" lon="1.40498">
        <ele>1349</ele>
        <time>2020-08-24T07:30:23Z</time>
      </trkpt>
      <trkpt lat="42.70763" lon="1.40488">
        <ele>1345</ele>
        <time>2020-08-24T07:30:38Z</time>
      </trkpt>
      <trkpt lat="42.70756" lon="1.40479">
        <ele>1344</ele>
        <time>2020-08-24T07:30:48Z</time>
      </trkpt>
      <trkpt lat="42.70749" lon="1.40471">
        <ele>1352</ele>
        <time>2020-08-24T07:31:59Z</time>
      </trkpt>
      <trkpt lat="42.70741" lon="1.40458">
        <ele>1348</ele>
        <time>2020-08-24T07:32:32Z</time>
      </trkpt>
      <trkpt lat="42.7073" lon="1.40452">
        <ele>1351</ele>
        <time>2020-08-24T07:33:00Z</time>
      </trkpt>
      <trkpt lat="42.7072" lon="1.40452">
        <ele>1358</ele>
        <time>2020-08-24T07:33:17Z</time>
      </trkpt>
      <trkpt lat="42.70718" lon="1.4044">
        <ele>1362</ele>
        <time>2020-08-24T07:33:31Z</time>
      </trkpt>
      <trkpt lat="42.7072" lon="1.40422">
        <ele>1370</ele>
        <time>2020-08-24T07:33:50Z</time>
      </trkpt>
      <trkpt lat="42.70719" lon="1.40409">
        <ele>1375</ele>
        <time>2020-08-24T07:34:21Z</time>
      </trkpt>
      <trkpt lat="42.7071" lon="1.40404">
        <ele>1373</ele>
        <time>2020-08-24T07:34:38Z</time>
      </trkpt>
      <trkpt lat="42.707" lon="1.40404">
        <ele>1375</ele>
        <time>2020-08-24T07:34:47Z</time>
      </trkpt>
      <trkpt lat="42.70688" lon="1.40399">
        <ele>1370</ele>
        <time>2020-08-24T07:35:06Z</time>
      </trkpt>
      <trkpt lat="42.70679" lon="1.404">
        <ele>1375</ele>
        <time>2020-08-24T07:35:14Z</time>
      </trkpt>
      <trkpt lat="42.7067" lon="1.40395">
        <ele>1376</ele>
        <time>2020-08-24T07:35:29Z</time>
      </trkpt>
      <trkpt lat="42.70664" lon="1.40385">
        <ele>1377</ele>
        <time>2020-08-24T07:35:45Z</time>
      </trkpt>
      <trkpt lat="42.70659" lon="1.40375">
        <ele>1377</ele>
        <time>2020-08-24T07:36:01Z</time>
      </trkpt>
      <trkpt lat="42.70648" lon="1.4038">
        <ele>1377</ele>
        <time>2020-08-24T07:36:22Z</time>
      </trkpt>
      <trkpt lat="42.70643" lon="1.40391">
        <ele>1380</ele>
        <time>2020-08-24T07:36:30Z</time>
      </trkpt>
      <trkpt lat="42.70633" lon="1.40391">
        <ele>1386</ele>
        <time>2020-08-24T07:36:56Z</time>
      </trkpt>
      <trkpt lat="42.70622" lon="1.40401">
        <ele>1388</ele>
        <time>2020-08-24T07:37:24Z</time>
      </trkpt>
      <trkpt lat="42.70616" lon="1.40411">
        <ele>1388</ele>
        <time>2020-08-24T07:37:41Z</time>
      </trkpt>
      <trkpt lat="42.70611" lon="1.40423">
        <ele>1388</ele>
        <time>2020-08-24T07:38:01Z</time>
      </trkpt>
      <trkpt lat="42.70618" lon="1.40404">
        <ele>1383</ele>
        <time>2020-08-24T07:38:46Z</time>
      </trkpt>
      <trkpt lat="42.70621" lon="1.40391">
        <ele>1384</ele>
        <time>2020-08-24T07:38:50Z</time>
      </trkpt>
      <trkpt lat="42.70609" lon="1.40388">
        <ele>1386</ele>
        <time>2020-08-24T07:38:54Z</time>
      </trkpt>
      <trkpt lat="42.70609" lon="1.40406">
        <ele>1397</ele>
        <time>2020-08-24T07:39:46Z</time>
      </trkpt>
      <trkpt lat="42.70613" lon="1.40418">
        <ele>1397</ele>
        <time>2020-08-24T07:39:50Z</time>
      </trkpt>
      <trkpt lat="42.7062" lon="1.4043">
        <ele>1396</ele>
        <time>2020-08-24T07:39:55Z</time>
      </trkpt>
      <trkpt lat="42.70626" lon="1.40441">
        <ele>1397</ele>
        <time>2020-08-24T07:39:59Z</time>
      </trkpt>
      <trkpt lat="42.70633" lon="1.40451">
        <ele>1398</ele>
        <time>2020-08-24T07:40:06Z</time>
      </trkpt>
      <trkpt lat="42.7064" lon="1.40462">
        <ele>1395</ele>
        <time>2020-08-24T07:40:14Z</time>
      </trkpt>
      <trkpt lat="42.70647" lon="1.40472">
        <ele>1404</ele>
        <time>2020-08-24T07:40:21Z</time>
      </trkpt>
      <trkpt lat="42.70654" lon="1.40483">
        <ele>1402</ele>
        <time>2020-08-24T07:40:30Z</time>
      </trkpt>
      <trkpt lat="42.70659" lon="1.40496">
        <ele>1406</ele>
        <time>2020-08-24T07:40:38Z</time>
      </trkpt>
      <trkpt lat="42.70663" lon="1.40507">
        <ele>1408</ele>
        <time>2020-08-24T07:40:46Z</time>
      </trkpt>
      <trkpt lat="42.70669" lon="1.40518">
        <ele>1411</ele>
        <time>2020-08-24T07:40:56Z</time>
      </trkpt>
      <trkpt lat="42.70676" lon="1.40528">
        <ele>1404</ele>
        <time>2020-08-24T07:41:05Z</time>
      </trkpt>
      <trkpt lat="42.70683" lon="1.40535">
        <ele>1401</ele>
        <time>2020-08-24T07:41:15Z</time>
      </trkpt>
      <trkpt lat="42.70689" lon="1.40546">
        <ele>1404</ele>
        <time>2020-08-24T07:41:25Z</time>
      </trkpt>
      <trkpt lat="42.70694" lon="1.40558">
        <ele>1399</ele>
        <time>2020-08-24T07:41:36Z</time>
      </trkpt>
      <trkpt lat="42.70696" lon="1.4057">
        <ele>1394</ele>
        <time>2020-08-24T07:41:45Z</time>
      </trkpt>
      <trkpt lat="42.70696" lon="1.40583">
        <ele>1391</ele>
        <time>2020-08-24T07:41:57Z</time>
      </trkpt>
      <trkpt lat="42.70697" lon="1.40596">
        <ele>1389</ele>
        <time>2020-08-24T07:42:08Z</time>
      </trkpt>
      <trkpt lat="42.70696" lon="1.40609">
        <ele>1391</ele>
        <time>2020-08-24T07:42:18Z</time>
      </trkpt>
      <trkpt lat="42.70695" lon="1.40622">
        <ele>1400</ele>
        <time>2020-08-24T07:42:28Z</time>
      </trkpt>
      <trkpt lat="42.707" lon="1.40634">
        <ele>1402</ele>
        <time>2020-08-24T07:42:38Z</time>
      </trkpt>
      <trkpt lat="42.70704" lon="1.40644">
        <ele>1404</ele>
        <time>2020-08-24T07:42:48Z</time>
      </trkpt>
      <trkpt lat="42.70709" lon="1.40656">
        <ele>1404</ele>
        <time>2020-08-24T07:42:59Z</time>
      </trkpt>
      <trkpt lat="42.70709" lon="1.40669">
        <ele>1405</ele>
        <time>2020-08-24T07:43:12Z</time>
      </trkpt>
      <trkpt lat="42.70706" lon="1.40681">
        <ele>1410</ele>
        <time>2020-08-24T07:43:25Z</time>
      </trkpt>
      <trkpt lat="42.70701" lon="1.40692">
        <ele>1411</ele>
        <time>2020-08-24T07:43:34Z</time>
      </trkpt>
      <trkpt lat="42.707" lon="1.40705">
        <ele>1414</ele>
        <time>2020-08-24T07:43:43Z</time>
      </trkpt>
      <trkpt lat="42.70701" lon="1.40718">
        <ele>1413</ele>
        <time>2020-08-24T07:43:50Z</time>
      </trkpt>
      <trkpt lat="42.70705" lon="1.4073">
        <ele>1422</ele>
        <time>2020-08-24T07:43:57Z</time>
      </trkpt>
      <trkpt lat="42.7071" lon="1.40742">
        <ele>1422</ele>
        <time>2020-08-24T07:44:03Z</time>
      </trkpt>
      <trkpt lat="42.70716" lon="1.40753">
        <ele>1423</ele>
        <time>2020-08-24T07:44:09Z</time>
      </trkpt>
      <trkpt lat="42.70724" lon="1.40763">
        <ele>1422</ele>
        <time>2020-08-24T07:44:17Z</time>
      </trkpt>
      <trkpt lat="42.70732" lon="1.40772">
        <ele>1419</ele>
        <time>2020-08-24T07:44:27Z</time>
      </trkpt>
      <trkpt lat="42.70735" lon="1.40784">
        <ele>1410</ele>
        <time>2020-08-24T07:44:38Z</time>
      </trkpt>
      <trkpt lat="42.70731" lon="1.40796">
        <ele>1402</ele>
        <time>2020-08-24T07:44:48Z</time>
      </trkpt>
      <trkpt lat="42.70734" lon="1.40808">
        <ele>1407</ele>
        <time>2020-08-24T07:45:01Z</time>
      </trkpt>
      <trkpt lat="42.7074" lon="1.40818">
        <ele>1406</ele>
        <time>2020-08-24T07:45:11Z</time>
      </trkpt>
      <trkpt lat="42.70744" lon="1.4083">
        <ele>1400</ele>
        <time>2020-08-24T07:45:22Z</time>
      </trkpt>
      <trkpt lat="42.70745" lon="1.40843">
        <ele>1395</ele>
        <time>2020-08-24T07:45:33Z</time>
      </trkpt>
      <trkpt lat="42.70742" lon="1.40855">
        <ele>1395</ele>
        <time>2020-08-24T07:45:44Z</time>
      </trkpt>
      <trkpt lat="42.70737" lon="1.40866">
        <ele>1397</ele>
        <time>2020-08-24T07:45:56Z</time>
      </trkpt>
      <trkpt lat="42.70731" lon="1.40877">
        <ele>1399</ele>
        <time>2020-08-24T07:46:05Z</time>
      </trkpt>
      <trkpt lat="42.70725" lon="1.40888">
        <ele>1404</ele>
        <time>2020-08-24T07:46:14Z</time>
      </trkpt>
      <trkpt lat="42.70721" lon="1.40899">
        <ele>1405</ele>
        <time>2020-08-24T07:46:25Z</time>
      </trkpt>
      <trkpt lat="42.70718" lon="1.40911">
        <ele>1412</ele>
        <time>2020-08-24T07:46:36Z</time>
      </trkpt>
      <trkpt lat="42.70712" lon="1.40921">
        <ele>1420</ele>
        <time>2020-08-24T07:46:49Z</time>
      </trkpt>
      <trkpt lat="42.7071" lon="1.40934">
        <ele>1423</ele>
        <time>2020-08-24T07:47:27Z</time>
      </trkpt>
      <trkpt lat="42.70705" lon="1.40945">
        <ele>1422</ele>
        <time>2020-08-24T07:47:39Z</time>
      </trkpt>
      <trkpt lat="42.70697" lon="1.40953">
        <ele>1425</ele>
        <time>2020-08-24T07:47:46Z</time>
      </trkpt>
      <trkpt lat="42.7069" lon="1.4096">
        <ele>1426</ele>
        <time>2020-08-24T07:47:56Z</time>
      </trkpt>
      <trkpt lat="42.70681" lon="1.40967">
        <ele>1425</ele>
        <time>2020-08-24T07:48:05Z</time>
      </trkpt>
      <trkpt lat="42.70674" lon="1.40976">
        <ele>1430</ele>
        <time>2020-08-24T07:48:15Z</time>
      </trkpt>
      <trkpt lat="42.7067" lon="1.40987">
        <ele>1429</ele>
        <time>2020-08-24T07:48:28Z</time>
      </trkpt>
      <trkpt lat="42.70667" lon="1.41">
        <ele>1431</ele>
        <time>2020-08-24T07:48:39Z</time>
      </trkpt>
      <trkpt lat="42.70668" lon="1.41012">
        <ele>1439</ele>
        <time>2020-08-24T07:49:00Z</time>
      </trkpt>
      <trkpt lat="42.70664" lon="1.41024">
        <ele>1438</ele>
        <time>2020-08-24T07:49:24Z</time>
      </trkpt>
      <trkpt lat="42.70655" lon="1.41027">
        <ele>1444</ele>
        <time>2020-08-24T07:49:37Z</time>
      </trkpt>
      <trkpt lat="42.70645" lon="1.41027">
        <ele>1450</ele>
        <time>2020-08-24T07:50:13Z</time>
      </trkpt>
      <trkpt lat="42.70642" lon="1.41012">
        <ele>1460</ele>
        <time>2020-08-24T07:50:41Z</time>
      </trkpt>
      <trkpt lat="42.70645" lon="1.40997">
        <ele>1466</ele>
        <time>2020-08-24T07:50:49Z</time>
      </trkpt>
      <trkpt lat="42.70648" lon="1.40985">
        <ele>1468</ele>
        <time>2020-08-24T07:50:57Z</time>
      </trkpt>
      <trkpt lat="42.70649" lon="1.40972">
        <ele>1472</ele>
        <time>2020-08-24T07:51:06Z</time>
      </trkpt>
      <trkpt lat="42.70649" lon="1.40959">
        <ele>1474</ele>
        <time>2020-08-24T07:51:15Z</time>
      </trkpt>
      <trkpt lat="42.70653" lon="1.40947">
        <ele>1475</ele>
        <time>2020-08-24T07:51:24Z</time>
      </trkpt>
      <trkpt lat="42.70655" lon="1.40934">
        <ele>1484</ele>
        <time>2020-08-24T07:52:47Z</time>
      </trkpt>
      <trkpt lat="42.70658" lon="1.4092">
        <ele>1487</ele>
        <time>2020-08-24T07:52:55Z</time>
      </trkpt>
      <trkpt lat="42.70661" lon="1.40907">
        <ele>1485</ele>
        <time>2020-08-24T07:53:02Z</time>
      </trkpt>
      <trkpt lat="42.70661" lon="1.40893">
        <ele>1484</ele>
        <time>2020-08-24T07:53:09Z</time>
      </trkpt>
      <trkpt lat="42.70654" lon="1.40883">
        <ele>1478</ele>
        <time>2020-08-24T07:53:19Z</time>
      </trkpt>
      <trkpt lat="42.70646" lon="1.40877">
        <ele>1477</ele>
        <time>2020-08-24T07:54:11Z</time>
      </trkpt>
      <trkpt lat="42.70646" lon="1.40864">
        <ele>1478</ele>
        <time>2020-08-24T07:54:27Z</time>
      </trkpt>
      <trkpt lat="42.70648" lon="1.40852">
        <ele>1482</ele>
        <time>2020-08-24T07:54:42Z</time>
      </trkpt>
      <trkpt lat="42.70649" lon="1.40838">
        <ele>1481</ele>
        <time>2020-08-24T07:55:25Z</time>
      </trkpt>
      <trkpt lat="42.70645" lon="1.40826">
        <ele>1483</ele>
        <time>2020-08-24T07:55:44Z</time>
      </trkpt>
      <trkpt lat="42.70641" lon="1.40814">
        <ele>1486</ele>
        <time>2020-08-24T07:55:59Z</time>
      </trkpt>
      <trkpt lat="42.70639" lon="1.40802">
        <ele>1489</ele>
        <time>2020-08-24T07:56:11Z</time>
      </trkpt>
      <trkpt lat="42.70633" lon="1.40793">
        <ele>1486</ele>
        <time>2020-08-24T07:56:23Z</time>
      </trkpt>
      <trkpt lat="42.70626" lon="1.40784">
        <ele>1493</ele>
        <time>2020-08-24T07:56:43Z</time>
      </trkpt>
      <trkpt lat="42.70617" lon="1.40771">
        <ele>1510</ele>
        <time>2020-08-24T07:57:19Z</time>
      </trkpt>
      <trkpt lat="42.70608" lon="1.40771">
        <ele>1514</ele>
        <time>2020-08-24T07:57:31Z</time>
      </trkpt>
      <trkpt lat="42.70599" lon="1.40774">
        <ele>1508</ele>
        <time>2020-08-24T07:57:41Z</time>
      </trkpt>
      <trkpt lat="42.70593" lon="1.40785">
        <ele>1508</ele>
        <time>2020-08-24T07:57:54Z</time>
      </trkpt>
      <trkpt lat="42.70584" lon="1.40788">
        <ele>1510</ele>
        <time>2020-08-24T07:58:19Z</time>
      </trkpt>
      <trkpt lat="42.70576" lon="1.40796">
        <ele>1520</ele>
        <time>2020-08-24T07:58:34Z</time>
      </trkpt>
      <trkpt lat="42.70568" lon="1.40801">
        <ele>1514</ele>
        <time>2020-08-24T07:58:56Z</time>
      </trkpt>
      <trkpt lat="42.70559" lon="1.40796">
        <ele>1508</ele>
        <time>2020-08-24T07:59:16Z</time>
      </trkpt>
      <trkpt lat="42.70554" lon="1.40779">
        <ele>1526</ele>
        <time>2020-08-24T07:59:58Z</time>
      </trkpt>
      <trkpt lat="42.70553" lon="1.40766">
        <ele>1526</ele>
        <time>2020-08-24T08:00:04Z</time>
      </trkpt>
      <trkpt lat="42.70554" lon="1.40753">
        <ele>1525</ele>
        <time>2020-08-24T08:00:13Z</time>
      </trkpt>
      <trkpt lat="42.70557" lon="1.40741">
        <ele>1531</ele>
        <time>2020-08-24T08:00:24Z</time>
      </trkpt>
      <trkpt lat="42.70563" lon="1.4073">
        <ele>1532</ele>
        <time>2020-08-24T08:00:40Z</time>
      </trkpt>
      <trkpt lat="42.70553" lon="1.40726">
        <ele>1532</ele>
        <time>2020-08-24T08:01:08Z</time>
      </trkpt>
      <trkpt lat="42.70549" lon="1.40715">
        <ele>1543</ele>
        <time>2020-08-24T08:01:23Z</time>
      </trkpt>
      <trkpt lat="42.70547" lon="1.40702">
        <ele>1551</ele>
        <time>2020-08-24T08:01:39Z</time>
      </trkpt>
      <trkpt lat="42.70547" lon="1.4069">
        <ele>1555</ele>
        <time>2020-08-24T08:01:53Z</time>
      </trkpt>
      <trkpt lat="42.70538" lon="1.40677">
        <ele>1556</ele>
        <time>2020-08-24T08:02:23Z</time>
      </trkpt>
      <trkpt lat="42.70531" lon="1.40668">
        <ele>1558</ele>
        <time>2020-08-24T08:03:08Z</time>
      </trkpt>
      <trkpt lat="42.70523" lon="1.40661">
        <ele>1559</ele>
        <time>2020-08-24T08:03:26Z</time>
      </trkpt>
      <trkpt lat="42.70515" lon="1.40653">
        <ele>1559</ele>
        <time>2020-08-24T08:03:47Z</time>
      </trkpt>
      <trkpt lat="42.70508" lon="1.40646">
        <ele>1560</ele>
        <time>2020-08-24T08:04:00Z</time>
      </trkpt>
      <trkpt lat="42.70496" lon="1.40651">
        <ele>1570</ele>
        <time>2020-08-24T08:04:18Z</time>
      </trkpt>
      <trkpt lat="42.7049" lon="1.40662">
        <ele>1575</ele>
        <time>2020-08-24T08:04:33Z</time>
      </trkpt>
      <trkpt lat="42.7048" lon="1.40651">
        <ele>1581</ele>
        <time>2020-08-24T08:05:07Z</time>
      </trkpt>
      <trkpt lat="42.70472" lon="1.40646">
        <ele>1588</ele>
        <time>2020-08-24T08:05:22Z</time>
      </trkpt>
      <trkpt lat="42.70462" lon="1.40636">
        <ele>1599</ele>
        <time>2020-08-24T08:06:12Z</time>
      </trkpt>
      <trkpt lat="42.70453" lon="1.40634">
        <ele>1601</ele>
        <time>2020-08-24T08:06:27Z</time>
      </trkpt>
      <trkpt lat="42.70444" lon="1.40635">
        <ele>1605</ele>
        <time>2020-08-24T08:06:49Z</time>
      </trkpt>
      <trkpt lat="42.70445" lon="1.40651">
        <ele>1604</ele>
        <time>2020-08-24T08:07:55Z</time>
      </trkpt>
      <trkpt lat="42.70435" lon="1.40664">
        <ele>1611</ele>
        <time>2020-08-24T08:08:24Z</time>
      </trkpt>
      <trkpt lat="42.70423" lon="1.40656">
        <ele>1617</ele>
        <time>2020-08-24T08:09:04Z</time>
      </trkpt>
      <trkpt lat="42.70417" lon="1.40646">
        <ele>1616</ele>
        <time>2020-08-24T08:09:14Z</time>
      </trkpt>
      <trkpt lat="42.70412" lon="1.40636">
        <ele>1628</ele>
        <time>2020-08-24T08:09:25Z</time>
      </trkpt>
      <trkpt lat="42.70404" lon="1.4063">
        <ele>1630</ele>
        <time>2020-08-24T08:09:42Z</time>
      </trkpt>
      <trkpt lat="42.70399" lon="1.40618">
        <ele>1632</ele>
        <time>2020-08-24T08:09:54Z</time>
      </trkpt>
      <trkpt lat="42.70389" lon="1.40618">
        <ele>1638</ele>
        <time>2020-08-24T08:10:54Z</time>
      </trkpt>
      <trkpt lat="42.70382" lon="1.40609">
        <ele>1642</ele>
        <time>2020-08-24T08:11:05Z</time>
      </trkpt>
      <trkpt lat="42.70376" lon="1.40599">
        <ele>1647</ele>
        <time>2020-08-24T08:11:24Z</time>
      </trkpt>
      <trkpt lat="42.70367" lon="1.40594">
        <ele>1647</ele>
        <time>2020-08-24T08:11:39Z</time>
      </trkpt>
      <trkpt lat="42.70358" lon="1.40589">
        <ele>1646</ele>
        <time>2020-08-24T08:11:54Z</time>
      </trkpt>
      <trkpt lat="42.7035" lon="1.40583">
        <ele>1646</ele>
        <time>2020-08-24T08:12:10Z</time>
      </trkpt>
      <trkpt lat="42.70343" lon="1.40573">
        <ele>1651</ele>
        <time>2020-08-24T08:12:33Z</time>
      </trkpt>
      <trkpt lat="42.70334" lon="1.40577">
        <ele>1652</ele>
        <time>2020-08-24T08:12:49Z</time>
      </trkpt>
      <trkpt lat="42.70321" lon="1.40575">
        <ele>1656</ele>
        <time>2020-08-24T08:13:35Z</time>
      </trkpt>
      <trkpt lat="42.70311" lon="1.40575">
        <ele>1658</ele>
        <time>2020-08-24T08:13:50Z</time>
      </trkpt>
      <trkpt lat="42.70304" lon="1.40582">
        <ele>1662</ele>
        <time>2020-08-24T08:14:16Z</time>
      </trkpt>
      <trkpt lat="42.70294" lon="1.40584">
        <ele>1670</ele>
        <time>2020-08-24T08:14:39Z</time>
      </trkpt>
      <trkpt lat="42.70285" lon="1.40583">
        <ele>1672</ele>
        <time>2020-08-24T08:14:48Z</time>
      </trkpt>
      <trkpt lat="42.70276" lon="1.40582">
        <ele>1673</ele>
        <time>2020-08-24T08:15:01Z</time>
      </trkpt>
      <trkpt lat="42.70267" lon="1.40577">
        <ele>1671</ele>
        <time>2020-08-24T08:15:12Z</time>
      </trkpt>
      <trkpt lat="42.70259" lon="1.4057">
        <ele>1670</ele>
        <time>2020-08-24T08:15:36Z</time>
      </trkpt>
      <trkpt lat="42.70256" lon="1.40558">
        <ele>1667</ele>
        <time>2020-08-24T08:15:53Z</time>
      </trkpt>
      <trkpt lat="42.70247" lon="1.40553">
        <ele>1674</ele>
        <time>2020-08-24T08:16:34Z</time>
      </trkpt>
      <trkpt lat="42.70243" lon="1.40538">
        <ele>1674</ele>
        <time>2020-08-24T08:17:01Z</time>
      </trkpt>
      <trkpt lat="42.7025" lon="1.40552">
        <ele>1671</ele>
        <time>2020-08-24T08:28:00Z</time>
      </trkpt>
      <trkpt lat="42.70246" lon="1.40563">
        <ele>1674</ele>
        <time>2020-08-24T08:28:23Z</time>
      </trkpt>
      <trkpt lat="42.70236" lon="1.40555">
        <ele>1673</ele>
        <time>2020-08-24T08:29:26Z</time>
      </trkpt>
      <trkpt lat="42.70227" lon="1.4055">
        <ele>1675</ele>
        <time>2020-08-24T08:29:34Z</time>
      </trkpt>
      <trkpt lat="42.70218" lon="1.40547">
        <ele>1677</ele>
        <time>2020-08-24T08:29:41Z</time>
      </trkpt>
      <trkpt lat="42.70208" lon="1.40547">
        <ele>1680</ele>
        <time>2020-08-24T08:29:50Z</time>
      </trkpt>
      <trkpt lat="42.70199" lon="1.40545">
        <ele>1684</ele>
        <time>2020-08-24T08:29:59Z</time>
      </trkpt>
      <trkpt lat="42.70189" lon="1.40543">
        <ele>1687</ele>
        <time>2020-08-24T08:30:08Z</time>
      </trkpt>
      <trkpt lat="42.7018" lon="1.40541">
        <ele>1686</ele>
        <time>2020-08-24T08:30:21Z</time>
      </trkpt>
      <trkpt lat="42.70172" lon="1.40536">
        <ele>1686</ele>
        <time>2020-08-24T08:30:34Z</time>
      </trkpt>
      <trkpt lat="42.70168" lon="1.40524">
        <ele>1692</ele>
        <time>2020-08-24T08:31:02Z</time>
      </trkpt>
      <trkpt lat="42.70162" lon="1.40514">
        <ele>1694</ele>
        <time>2020-08-24T08:31:20Z</time>
      </trkpt>
      <trkpt lat="42.70153" lon="1.40517">
        <ele>1695</ele>
        <time>2020-08-24T08:31:32Z</time>
      </trkpt>
      <trkpt lat="42.70144" lon="1.40519">
        <ele>1696</ele>
        <time>2020-08-24T08:31:50Z</time>
      </trkpt>
      <trkpt lat="42.70135" lon="1.40509">
        <ele>1709</ele>
        <time>2020-08-24T08:35:00Z</time>
      </trkpt>
      <trkpt lat="42.70123" lon="1.40501">
        <ele>1713</ele>
        <time>2020-08-24T08:35:38Z</time>
      </trkpt>
      <trkpt lat="42.70114" lon="1.40498">
        <ele>1718</ele>
        <time>2020-08-24T08:35:59Z</time>
      </trkpt>
      <trkpt lat="42.70122" lon="1.4049">
        <ele>1720</ele>
        <time>2020-08-24T08:37:39Z</time>
      </trkpt>
      <trkpt lat="42.70118" lon="1.40478">
        <ele>1720</ele>
        <time>2020-08-24T08:37:52Z</time>
      </trkpt>
      <trkpt lat="42.70112" lon="1.40467">
        <ele>1723</ele>
        <time>2020-08-24T08:37:59Z</time>
      </trkpt>
      <trkpt lat="42.70103" lon="1.40463">
        <ele>1727</ele>
        <time>2020-08-24T08:38:10Z</time>
      </trkpt>
      <trkpt lat="42.70094" lon="1.40462">
        <ele>1729</ele>
        <time>2020-08-24T08:38:22Z</time>
      </trkpt>
      <trkpt lat="42.70085" lon="1.40457">
        <ele>1728</ele>
        <time>2020-08-24T08:38:34Z</time>
      </trkpt>
      <trkpt lat="42.70079" lon="1.40448">
        <ele>1729</ele>
        <time>2020-08-24T08:38:44Z</time>
      </trkpt>
      <trkpt lat="42.70074" lon="1.40437">
        <ele>1728</ele>
        <time>2020-08-24T08:38:57Z</time>
      </trkpt>
      <trkpt lat="42.70069" lon="1.40426">
        <ele>1728</ele>
        <time>2020-08-24T08:39:08Z</time>
      </trkpt>
      <trkpt lat="42.7006" lon="1.40421">
        <ele>1730</ele>
        <time>2020-08-24T08:39:21Z</time>
      </trkpt>
      <trkpt lat="42.70057" lon="1.40404">
        <ele>1741</ele>
        <time>2020-08-24T08:40:06Z</time>
      </trkpt>
      <trkpt lat="42.70046" lon="1.40395">
        <ele>1747</ele>
        <time>2020-08-24T08:40:36Z</time>
      </trkpt>
      <trkpt lat="42.70036" lon="1.40393">
        <ele>1751</ele>
        <time>2020-08-24T08:40:51Z</time>
      </trkpt>
      <trkpt lat="42.7003" lon="1.40376">
        <ele>1754</ele>
        <time>2020-08-24T08:41:38Z</time>
      </trkpt>
      <trkpt lat="42.70024" lon="1.40365">
        <ele>1757</ele>
        <time>2020-08-24T08:41:55Z</time>
      </trkpt>
      <trkpt lat="42.70021" lon="1.40354">
        <ele>1761</ele>
        <time>2020-08-24T08:42:08Z</time>
      </trkpt>
      <trkpt lat="42.70013" lon="1.40348">
        <ele>1759</ele>
        <time>2020-08-24T08:42:21Z</time>
      </trkpt>
      <trkpt lat="42.70004" lon="1.40343">
        <ele>1759</ele>
        <time>2020-08-24T08:42:33Z</time>
      </trkpt>
      <trkpt lat="42.69996" lon="1.40335">
        <ele>1758</ele>
        <time>2020-08-24T08:42:45Z</time>
      </trkpt>
      <trkpt lat="42.69989" lon="1.40325">
        <ele>1763</ele>
        <time>2020-08-24T08:42:58Z</time>
      </trkpt>
      <trkpt lat="42.69983" lon="1.40315">
        <ele>1766</ele>
        <time>2020-08-24T08:43:11Z</time>
      </trkpt>
      <trkpt lat="42.69979" lon="1.40304">
        <ele>1767</ele>
        <time>2020-08-24T08:43:27Z</time>
      </trkpt>
      <trkpt lat="42.69974" lon="1.40294">
        <ele>1771</ele>
        <time>2020-08-24T08:43:40Z</time>
      </trkpt>
      <trkpt lat="42.6997" lon="1.40282">
        <ele>1779</ele>
        <time>2020-08-24T08:43:59Z</time>
      </trkpt>
      <trkpt lat="42.69963" lon="1.40272">
        <ele>1775</ele>
        <time>2020-08-24T08:44:18Z</time>
      </trkpt>
      <trkpt lat="42.69963" lon="1.40259">
        <ele>1774</ele>
        <time>2020-08-24T08:44:32Z</time>
      </trkpt>
      <trkpt lat="42.69958" lon="1.40248">
        <ele>1777</ele>
        <time>2020-08-24T08:44:47Z</time>
      </trkpt>
      <trkpt lat="42.69953" lon="1.40237">
        <ele>1780</ele>
        <time>2020-08-24T08:45:03Z</time>
      </trkpt>
      <trkpt lat="42.69951" lon="1.40224">
        <ele>1783</ele>
        <time>2020-08-24T08:45:19Z</time>
      </trkpt>
      <trkpt lat="42.69947" lon="1.40213">
        <ele>1787</ele>
        <time>2020-08-24T08:45:33Z</time>
      </trkpt>
      <trkpt lat="42.69943" lon="1.40201">
        <ele>1787</ele>
        <time>2020-08-24T08:45:49Z</time>
      </trkpt>
      <trkpt lat="42.69937" lon="1.40187">
        <ele>1787</ele>
        <time>2020-08-24T08:46:10Z</time>
      </trkpt>
      <trkpt lat="42.69927" lon="1.40183">
        <ele>1788</ele>
        <time>2020-08-24T08:46:21Z</time>
      </trkpt>
      <trkpt lat="42.69918" lon="1.40185">
        <ele>1791</ele>
        <time>2020-08-24T08:46:35Z</time>
      </trkpt>
      <trkpt lat="42.69909" lon="1.40182">
        <ele>1794</ele>
        <time>2020-08-24T08:46:50Z</time>
      </trkpt>
      <trkpt lat="42.699" lon="1.40182">
        <ele>1793</ele>
        <time>2020-08-24T08:47:07Z</time>
      </trkpt>
      <trkpt lat="42.69891" lon="1.40175">
        <ele>1795</ele>
        <time>2020-08-24T08:47:22Z</time>
      </trkpt>
      <trkpt lat="42.69883" lon="1.40169">
        <ele>1794</ele>
        <time>2020-08-24T08:47:35Z</time>
      </trkpt>
      <trkpt lat="42.69874" lon="1.40163">
        <ele>1800</ele>
        <time>2020-08-24T08:47:49Z</time>
      </trkpt>
      <trkpt lat="42.69866" lon="1.40158">
        <ele>1798</ele>
        <time>2020-08-24T08:48:05Z</time>
      </trkpt>
      <trkpt lat="42.69855" lon="1.40153">
        <ele>1814</ele>
        <time>2020-08-24T08:48:56Z</time>
      </trkpt>
      <trkpt lat="42.69843" lon="1.40147">
        <ele>1812</ele>
        <time>2020-08-24T08:49:21Z</time>
      </trkpt>
      <trkpt lat="42.69835" lon="1.4016">
        <ele>1820</ele>
        <time>2020-08-24T08:50:06Z</time>
      </trkpt>
      <trkpt lat="42.69836" lon="1.40174">
        <ele>1816</ele>
        <time>2020-08-24T08:50:17Z</time>
      </trkpt>
      <trkpt lat="42.69824" lon="1.40179">
        <ele>1822</ele>
        <time>2020-08-24T08:50:41Z</time>
      </trkpt>
      <trkpt lat="42.69815" lon="1.40173">
        <ele>1826</ele>
        <time>2020-08-24T08:50:56Z</time>
      </trkpt>
      <trkpt lat="42.6981" lon="1.40163">
        <ele>1830</ele>
        <time>2020-08-24T08:51:09Z</time>
      </trkpt>
      <trkpt lat="42.69809" lon="1.4015">
        <ele>1831</ele>
        <time>2020-08-24T08:51:31Z</time>
      </trkpt>
      <trkpt lat="42.69802" lon="1.4014">
        <ele>1830</ele>
        <time>2020-08-24T08:51:41Z</time>
      </trkpt>
      <trkpt lat="42.69795" lon="1.40131">
        <ele>1831</ele>
        <time>2020-08-24T08:51:54Z</time>
      </trkpt>
      <trkpt lat="42.69785" lon="1.40127">
        <ele>1836</ele>
        <time>2020-08-24T08:52:06Z</time>
      </trkpt>
      <trkpt lat="42.6978" lon="1.40117">
        <ele>1836</ele>
        <time>2020-08-24T08:52:19Z</time>
      </trkpt>
      <trkpt lat="42.69778" lon="1.40105">
        <ele>1835</ele>
        <time>2020-08-24T08:52:31Z</time>
      </trkpt>
      <trkpt lat="42.69781" lon="1.40093">
        <ele>1834</ele>
        <time>2020-08-24T08:52:41Z</time>
      </trkpt>
      <trkpt lat="42.69783" lon="1.4008">
        <ele>1836</ele>
        <time>2020-08-24T08:52:52Z</time>
      </trkpt>
      <trkpt lat="42.69781" lon="1.40067">
        <ele>1838</ele>
        <time>2020-08-24T08:53:10Z</time>
      </trkpt>
      <trkpt lat="42.69772" lon="1.40052">
        <ele>1842</ele>
        <time>2020-08-24T08:53:31Z</time>
      </trkpt>
      <trkpt lat="42.69763" lon="1.40046">
        <ele>1841</ele>
        <time>2020-08-24T08:53:45Z</time>
      </trkpt>
      <trkpt lat="42.69756" lon="1.40037">
        <ele>1845</ele>
        <time>2020-08-24T08:53:57Z</time>
      </trkpt>
      <trkpt lat="42.69743" lon="1.40034">
        <ele>1847</ele>
        <time>2020-08-24T08:54:34Z</time>
      </trkpt>
      <trkpt lat="42.69735" lon="1.40027">
        <ele>1848</ele>
        <time>2020-08-24T08:54:49Z</time>
      </trkpt>
      <trkpt lat="42.69726" lon="1.40021">
        <ele>1851</ele>
        <time>2020-08-24T08:55:03Z</time>
      </trkpt>
      <trkpt lat="42.69718" lon="1.40014">
        <ele>1852</ele>
        <time>2020-08-24T08:55:18Z</time>
      </trkpt>
      <trkpt lat="42.69709" lon="1.40011">
        <ele>1857</ele>
        <time>2020-08-24T08:55:43Z</time>
      </trkpt>
      <trkpt lat="42.69699" lon="1.40011">
        <ele>1856</ele>
        <time>2020-08-24T08:56:14Z</time>
      </trkpt>
      <trkpt lat="42.69695" lon="1.4">
        <ele>1863</ele>
        <time>2020-08-24T08:56:45Z</time>
      </trkpt>
      <trkpt lat="42.69687" lon="1.39986">
        <ele>1864</ele>
        <time>2020-08-24T08:57:23Z</time>
      </trkpt>
      <trkpt lat="42.6969" lon="1.39973">
        <ele>1864</ele>
        <time>2020-08-24T08:57:34Z</time>
      </trkpt>
      <trkpt lat="42.69691" lon="1.39961">
        <ele>1870</ele>
        <time>2020-08-24T08:57:49Z</time>
      </trkpt>
      <trkpt lat="42.69702" lon="1.39956">
        <ele>1878</ele>
        <time>2020-08-24T08:58:14Z</time>
      </trkpt>
      <trkpt lat="42.69712" lon="1.39955">
        <ele>1883</ele>
        <time>2020-08-24T08:58:24Z</time>
      </trkpt>
      <trkpt lat="42.69716" lon="1.39944">
        <ele>1889</ele>
        <time>2020-08-24T08:58:43Z</time>
      </trkpt>
      <trkpt lat="42.69713" lon="1.39932">
        <ele>1888</ele>
        <time>2020-08-24T08:58:56Z</time>
      </trkpt>
      <trkpt lat="42.69704" lon="1.39924">
        <ele>1889</ele>
        <time>2020-08-24T08:59:06Z</time>
      </trkpt>
      <trkpt lat="42.69697" lon="1.39916">
        <ele>1891</ele>
        <time>2020-08-24T08:59:21Z</time>
      </trkpt>
      <trkpt lat="42.69696" lon="1.39899">
        <ele>1898</ele>
        <time>2020-08-24T09:00:04Z</time>
      </trkpt>
      <trkpt lat="42.6969" lon="1.3989">
        <ele>1902</ele>
        <time>2020-08-24T09:00:35Z</time>
      </trkpt>
      <trkpt lat="42.69685" lon="1.39878">
        <ele>1902</ele>
        <time>2020-08-24T09:00:56Z</time>
      </trkpt>
      <trkpt lat="42.69692" lon="1.39868">
        <ele>1906</ele>
        <time>2020-08-24T09:01:38Z</time>
      </trkpt>
      <trkpt lat="42.69699" lon="1.39861">
        <ele>1914</ele>
        <time>2020-08-24T09:02:03Z</time>
      </trkpt>
      <trkpt lat="42.69692" lon="1.39849">
        <ele>1925</ele>
        <time>2020-08-24T09:02:53Z</time>
      </trkpt>
      <trkpt lat="42.69687" lon="1.39837">
        <ele>1925</ele>
        <time>2020-08-24T09:03:41Z</time>
      </trkpt>
      <trkpt lat="42.69689" lon="1.39825">
        <ele>1929</ele>
        <time>2020-08-24T09:03:59Z</time>
      </trkpt>
      <trkpt lat="42.69693" lon="1.39813">
        <ele>1931</ele>
        <time>2020-08-24T09:04:11Z</time>
      </trkpt>
      <trkpt lat="42.69697" lon="1.39801">
        <ele>1934</ele>
        <time>2020-08-24T09:05:06Z</time>
      </trkpt>
      <trkpt lat="42.69695" lon="1.39789">
        <ele>1937</ele>
        <time>2020-08-24T09:08:27Z</time>
      </trkpt>
      <trkpt lat="42.69699" lon="1.39776">
        <ele>1937</ele>
        <time>2020-08-24T09:08:40Z</time>
      </trkpt>
      <trkpt lat="42.69701" lon="1.39763">
        <ele>1939</ele>
        <time>2020-08-24T09:08:51Z</time>
      </trkpt>
      <trkpt lat="42.69704" lon="1.3975">
        <ele>1939</ele>
        <time>2020-08-24T09:09:02Z</time>
      </trkpt>
      <trkpt lat="42.69709" lon="1.39739">
        <ele>1942</ele>
        <time>2020-08-24T09:09:11Z</time>
      </trkpt>
      <trkpt lat="42.69709" lon="1.39726">
        <ele>1945</ele>
        <time>2020-08-24T09:09:24Z</time>
      </trkpt>
      <trkpt lat="42.69705" lon="1.39715">
        <ele>1949</ele>
        <time>2020-08-24T09:09:35Z</time>
      </trkpt>
      <trkpt lat="42.69697" lon="1.39707">
        <ele>1952</ele>
        <time>2020-08-24T09:09:48Z</time>
      </trkpt>
      <trkpt lat="42.69688" lon="1.39701">
        <ele>1952</ele>
        <time>2020-08-24T09:10:07Z</time>
      </trkpt>
      <trkpt lat="42.69678" lon="1.39701">
        <ele>1954</ele>
        <time>2020-08-24T09:11:02Z</time>
      </trkpt>
      <trkpt lat="42.69668" lon="1.39689">
        <ele>1959</ele>
        <time>2020-08-24T09:11:38Z</time>
      </trkpt>
      <trkpt lat="42.69659" lon="1.39688">
        <ele>1961</ele>
        <time>2020-08-24T09:11:55Z</time>
      </trkpt>
      <trkpt lat="42.69649" lon="1.39687">
        <ele>1967</ele>
        <time>2020-08-24T09:12:14Z</time>
      </trkpt>
      <trkpt lat="42.69639" lon="1.39684">
        <ele>1975</ele>
        <time>2020-08-24T09:13:02Z</time>
      </trkpt>
      <trkpt lat="42.69639" lon="1.39671">
        <ele>1978</ele>
        <time>2020-08-24T09:13:26Z</time>
      </trkpt>
      <trkpt lat="42.69633" lon="1.3966">
        <ele>1979</ele>
        <time>2020-08-24T09:13:41Z</time>
      </trkpt>
      <trkpt lat="42.69628" lon="1.39671">
        <ele>1986</ele>
        <time>2020-08-24T09:14:35Z</time>
      </trkpt>
      <trkpt lat="42.6962" lon="1.39664">
        <ele>1994</ele>
        <time>2020-08-24T09:15:03Z</time>
      </trkpt>
      <trkpt lat="42.69612" lon="1.39658">
        <ele>1999</ele>
        <time>2020-08-24T09:15:23Z</time>
      </trkpt>
      <trkpt lat="42.69603" lon="1.39652">
        <ele>2000</ele>
        <time>2020-08-24T09:15:34Z</time>
      </trkpt>
      <trkpt lat="42.69593" lon="1.3964">
        <ele>2004</ele>
        <time>2020-08-24T09:16:06Z</time>
      </trkpt>
      <trkpt lat="42.69585" lon="1.39634">
        <ele>2008</ele>
        <time>2020-08-24T09:16:19Z</time>
      </trkpt>
      <trkpt lat="42.69575" lon="1.39634">
        <ele>2011</ele>
        <time>2020-08-24T09:16:30Z</time>
      </trkpt>
      <trkpt lat="42.69566" lon="1.39628">
        <ele>2016</ele>
        <time>2020-08-24T09:16:50Z</time>
      </trkpt>
      <trkpt lat="42.69556" lon="1.39618">
        <ele>2016</ele>
        <time>2020-08-24T09:17:19Z</time>
      </trkpt>
      <trkpt lat="42.69548" lon="1.39604">
        <ele>2023</ele>
        <time>2020-08-24T09:17:47Z</time>
      </trkpt>
      <trkpt lat="42.69539" lon="1.39609">
        <ele>2025</ele>
        <time>2020-08-24T09:18:14Z</time>
      </trkpt>
      <trkpt lat="42.6953" lon="1.39601">
        <ele>2032</ele>
        <time>2020-08-24T09:19:13Z</time>
      </trkpt>
      <trkpt lat="42.69522" lon="1.39594">
        <ele>2035</ele>
        <time>2020-08-24T09:19:32Z</time>
      </trkpt>
      <trkpt lat="42.69513" lon="1.39597">
        <ele>2037</ele>
        <time>2020-08-24T09:20:01Z</time>
      </trkpt>
      <trkpt lat="42.69502" lon="1.39603">
        <ele>2041</ele>
        <time>2020-08-24T09:20:36Z</time>
      </trkpt>
      <trkpt lat="42.69499" lon="1.39619">
        <ele>2048</ele>
        <time>2020-08-24T09:21:06Z</time>
      </trkpt>
      <trkpt lat="42.69487" lon="1.39623">
        <ele>2061</ele>
        <time>2020-08-24T09:22:21Z</time>
      </trkpt>
      <trkpt lat="42.69478" lon="1.39618">
        <ele>2060</ele>
        <time>2020-08-24T09:22:31Z</time>
      </trkpt>
      <trkpt lat="42.69469" lon="1.39615">
        <ele>2065</ele>
        <time>2020-08-24T09:22:47Z</time>
      </trkpt>
      <trkpt lat="42.69463" lon="1.39605">
        <ele>2068</ele>
        <time>2020-08-24T09:23:01Z</time>
      </trkpt>
      <trkpt lat="42.69457" lon="1.39595">
        <ele>2072</ele>
        <time>2020-08-24T09:24:39Z</time>
      </trkpt>
      <trkpt lat="42.69449" lon="1.39588">
        <ele>2077</ele>
        <time>2020-08-24T09:24:51Z</time>
      </trkpt>
      <trkpt lat="42.69443" lon="1.39579">
        <ele>2079</ele>
        <time>2020-08-24T09:25:08Z</time>
      </trkpt>
      <trkpt lat="42.69432" lon="1.39576">
        <ele>2081</ele>
        <time>2020-08-24T09:25:45Z</time>
      </trkpt>
      <trkpt lat="42.69426" lon="1.39587">
        <ele>2080</ele>
        <time>2020-08-24T09:25:55Z</time>
      </trkpt>
      <trkpt lat="42.69419" lon="1.39597">
        <ele>2084</ele>
        <time>2020-08-24T09:26:07Z</time>
      </trkpt>
      <trkpt lat="42.69414" lon="1.39607">
        <ele>2085</ele>
        <time>2020-08-24T09:26:29Z</time>
      </trkpt>
      <trkpt lat="42.69407" lon="1.39614">
        <ele>2088</ele>
        <time>2020-08-24T09:26:49Z</time>
      </trkpt>
      <trkpt lat="42.69398" lon="1.39619">
        <ele>2087</ele>
        <time>2020-08-24T09:27:04Z</time>
      </trkpt>
      <trkpt lat="42.69389" lon="1.39617">
        <ele>2090</ele>
        <time>2020-08-24T09:27:25Z</time>
      </trkpt>
      <trkpt lat="42.6938" lon="1.39626">
        <ele>2102</ele>
        <time>2020-08-24T09:28:42Z</time>
      </trkpt>
      <trkpt lat="42.69371" lon="1.39625">
        <ele>2102</ele>
        <time>2020-08-24T09:28:55Z</time>
      </trkpt>
      <trkpt lat="42.69361" lon="1.39623">
        <ele>2107</ele>
        <time>2020-08-24T09:29:12Z</time>
      </trkpt>
      <trkpt lat="42.69348" lon="1.39629">
        <ele>2109</ele>
        <time>2020-08-24T09:29:42Z</time>
      </trkpt>
      <trkpt lat="42.69344" lon="1.39641">
        <ele>2111</ele>
        <time>2020-08-24T09:29:58Z</time>
      </trkpt>
      <trkpt lat="42.69336" lon="1.39649">
        <ele>2117</ele>
        <time>2020-08-24T09:30:31Z</time>
      </trkpt>
      <trkpt lat="42.69342" lon="1.39639">
        <ele>2117</ele>
        <time>2020-08-24T09:30:56Z</time>
      </trkpt>
      <trkpt lat="42.69337" lon="1.39626">
        <ele>2125</ele>
        <time>2020-08-24T09:32:18Z</time>
      </trkpt>
      <trkpt lat="42.69328" lon="1.39622">
        <ele>2129</ele>
        <time>2020-08-24T09:32:36Z</time>
      </trkpt>
      <trkpt lat="42.69321" lon="1.39629">
        <ele>2136</ele>
        <time>2020-08-24T09:32:58Z</time>
      </trkpt>
      <trkpt lat="42.69314" lon="1.39639">
        <ele>2136</ele>
        <time>2020-08-24T09:33:16Z</time>
      </trkpt>
      <trkpt lat="42.69311" lon="1.39624">
        <ele>2140</ele>
        <time>2020-08-24T09:34:13Z</time>
      </trkpt>
      <trkpt lat="42.69304" lon="1.39634">
        <ele>2138</ele>
        <time>2020-08-24T09:34:22Z</time>
      </trkpt>
      <trkpt lat="42.69299" lon="1.39646">
        <ele>2136</ele>
        <time>2020-08-24T09:34:27Z</time>
      </trkpt>
      <trkpt lat="42.69296" lon="1.39661">
        <ele>2138</ele>
        <time>2020-08-24T09:34:33Z</time>
      </trkpt>
      <trkpt lat="42.69298" lon="1.39674">
        <ele>2137</ele>
        <time>2020-08-24T09:34:45Z</time>
      </trkpt>
      <trkpt lat="42.69299" lon="1.39686">
        <ele>2139</ele>
        <time>2020-08-24T09:35:06Z</time>
      </trkpt>
      <trkpt lat="42.69309" lon="1.39689">
        <ele>2137</ele>
        <time>2020-08-24T09:36:18Z</time>
      </trkpt>
      <trkpt lat="42.69314" lon="1.39679">
        <ele>2138</ele>
        <time>2020-08-24T09:36:26Z</time>
      </trkpt>
      <trkpt lat="42.69315" lon="1.39665">
        <ele>2136</ele>
        <time>2020-08-24T09:36:33Z</time>
      </trkpt>
      <trkpt lat="42.69316" lon="1.39651">
        <ele>2137</ele>
        <time>2020-08-24T09:36:39Z</time>
      </trkpt>
      <trkpt lat="42.69317" lon="1.39639">
        <ele>2137</ele>
        <time>2020-08-24T09:36:48Z</time>
      </trkpt>
      <trkpt lat="42.69319" lon="1.39626">
        <ele>2134</ele>
        <time>2020-08-24T09:36:58Z</time>
      </trkpt>
      <trkpt lat="42.6932" lon="1.39613">
        <ele>2138</ele>
        <time>2020-08-24T09:37:12Z</time>
      </trkpt>
      <trkpt lat="42.69311" lon="1.39613">
        <ele>2143</ele>
        <time>2020-08-24T09:37:54Z</time>
      </trkpt>
      <trkpt lat="42.69303" lon="1.3962">
        <ele>2150</ele>
        <time>2020-08-24T09:38:24Z</time>
      </trkpt>
      <trkpt lat="42.69293" lon="1.39614">
        <ele>2153</ele>
        <time>2020-08-24T09:39:13Z</time>
      </trkpt>
      <trkpt lat="42.69289" lon="1.39603">
        <ele>2154</ele>
        <time>2020-08-24T09:39:30Z</time>
      </trkpt>
      <trkpt lat="42.69292" lon="1.39591">
        <ele>2163</ele>
        <time>2020-08-24T09:40:05Z</time>
      </trkpt>
      <trkpt lat="42.6928" lon="1.39586">
        <ele>2165</ele>
        <time>2020-08-24T09:41:04Z</time>
      </trkpt>
      <trkpt lat="42.69272" lon="1.39593">
        <ele>2164</ele>
        <time>2020-08-24T09:41:16Z</time>
      </trkpt>
      <trkpt lat="42.69265" lon="1.39603">
        <ele>2169</ele>
        <time>2020-08-24T09:41:35Z</time>
      </trkpt>
      <trkpt lat="42.69258" lon="1.39594">
        <ele>2176</ele>
        <time>2020-08-24T09:41:47Z</time>
      </trkpt>
      <trkpt lat="42.69248" lon="1.39597">
        <ele>2175</ele>
        <time>2020-08-24T09:44:16Z</time>
      </trkpt>
      <trkpt lat="42.69242" lon="1.39587">
        <ele>2183</ele>
        <time>2020-08-24T09:44:32Z</time>
      </trkpt>
      <trkpt lat="42.69236" lon="1.39576">
        <ele>2189</ele>
        <time>2020-08-24T09:44:51Z</time>
      </trkpt>
      <trkpt lat="42.69231" lon="1.39564">
        <ele>2190</ele>
        <time>2020-08-24T09:45:04Z</time>
      </trkpt>
      <trkpt lat="42.6922" lon="1.39556">
        <ele>2200</ele>
        <time>2020-08-24T09:45:38Z</time>
      </trkpt>
      <trkpt lat="42.69213" lon="1.39548">
        <ele>2204</ele>
        <time>2020-08-24T09:46:03Z</time>
      </trkpt>
      <trkpt lat="42.69201" lon="1.39554">
        <ele>2207</ele>
        <time>2020-08-24T09:46:42Z</time>
      </trkpt>
      <trkpt lat="42.69194" lon="1.39561">
        <ele>2212</ele>
        <time>2020-08-24T09:46:56Z</time>
      </trkpt>
      <trkpt lat="42.69185" lon="1.39566">
        <ele>2216</ele>
        <time>2020-08-24T09:47:09Z</time>
      </trkpt>
      <trkpt lat="42.69175" lon="1.39567">
        <ele>2218</ele>
        <time>2020-08-24T09:47:39Z</time>
      </trkpt>
      <trkpt lat="42.69165" lon="1.39577">
        <ele>2222</ele>
        <time>2020-08-24T09:48:17Z</time>
      </trkpt>
      <trkpt lat="42.69155" lon="1.39578">
        <ele>2226</ele>
        <time>2020-08-24T09:48:29Z</time>
      </trkpt>
      <trkpt lat="42.69145" lon="1.39577">
        <ele>2228</ele>
        <time>2020-08-24T09:48:41Z</time>
      </trkpt>
      <trkpt lat="42.69138" lon="1.39584">
        <ele>2227</ele>
        <time>2020-08-24T09:49:03Z</time>
      </trkpt>
      <trkpt lat="42.6913" lon="1.39592">
        <ele>2222</ele>
        <time>2020-08-24T09:50:08Z</time>
      </trkpt>
      <trkpt lat="42.69124" lon="1.39602">
        <ele>2228</ele>
        <time>2020-08-24T09:50:19Z</time>
      </trkpt>
      <trkpt lat="42.6912" lon="1.39613">
        <ele>2225</ele>
        <time>2020-08-24T09:50:32Z</time>
      </trkpt>
      <trkpt lat="42.6912" lon="1.39625">
        <ele>2220</ele>
        <time>2020-08-24T09:50:43Z</time>
      </trkpt>
      <trkpt lat="42.69126" lon="1.39635">
        <ele>2228</ele>
        <time>2020-08-24T09:50:57Z</time>
      </trkpt>
      <trkpt lat="42.69135" lon="1.39638">
        <ele>2229</ele>
        <time>2020-08-24T09:51:21Z</time>
      </trkpt>
      <trkpt lat="42.69138" lon="1.39654">
        <ele>2223</ele>
        <time>2020-08-24T09:52:05Z</time>
      </trkpt>
      <trkpt lat="42.69131" lon="1.39662">
        <ele>2224</ele>
        <time>2020-08-24T09:53:12Z</time>
      </trkpt>
      <trkpt lat="42.69127" lon="1.39651">
        <ele>2251</ele>
        <time>2020-08-24T10:21:49Z</time>
      </trkpt>
      <trkpt lat="42.69131" lon="1.39663">
        <ele>2232</ele>
        <time>2020-08-24T10:44:45Z</time>
      </trkpt>
      <trkpt lat="42.6913" lon="1.39676">
        <ele>2235</ele>
        <time>2020-08-24T10:45:19Z</time>
      </trkpt>
      <trkpt lat="42.69137" lon="1.39687">
        <ele>2236</ele>
        <time>2020-08-24T10:45:28Z</time>
      </trkpt>
      <trkpt lat="42.69138" lon="1.39701">
        <ele>2236</ele>
        <time>2020-08-24T10:45:34Z</time>
      </trkpt>
      <trkpt lat="42.69137" lon="1.39713">
        <ele>2234</ele>
        <time>2020-08-24T10:45:44Z</time>
      </trkpt>
      <trkpt lat="42.69138" lon="1.39726">
        <ele>2232</ele>
        <time>2020-08-24T10:46:05Z</time>
      </trkpt>
      <trkpt lat="42.69142" lon="1.39743">
        <ele>2239</ele>
        <time>2020-08-24T10:46:37Z</time>
      </trkpt>
      <trkpt lat="42.69143" lon="1.39756">
        <ele>2234</ele>
        <time>2020-08-24T10:46:50Z</time>
      </trkpt>
      <trkpt lat="42.6914" lon="1.39768">
        <ele>2230</ele>
        <time>2020-08-24T10:47:06Z</time>
      </trkpt>
      <trkpt lat="42.69134" lon="1.39781">
        <ele>2229</ele>
        <time>2020-08-24T10:52:43Z</time>
      </trkpt>
      <trkpt lat="42.69132" lon="1.39793">
        <ele>2223</ele>
        <time>2020-08-24T10:53:04Z</time>
      </trkpt>
      <trkpt lat="42.69129" lon="1.39807">
        <ele>2223</ele>
        <time>2020-08-24T10:53:22Z</time>
      </trkpt>
      <trkpt lat="42.69132" lon="1.3982">
        <ele>2222</ele>
        <time>2020-08-24T10:53:33Z</time>
      </trkpt>
      <trkpt lat="42.69138" lon="1.3983">
        <ele>2222</ele>
        <time>2020-08-24T10:53:45Z</time>
      </trkpt>
      <trkpt lat="42.69144" lon="1.3984">
        <ele>2219</ele>
        <time>2020-08-24T10:53:54Z</time>
      </trkpt>
      <trkpt lat="42.69149" lon="1.39852">
        <ele>2214</ele>
        <time>2020-08-24T10:54:06Z</time>
      </trkpt>
      <trkpt lat="42.69151" lon="1.39864">
        <ele>2213</ele>
        <time>2020-08-24T10:54:16Z</time>
      </trkpt>
      <trkpt lat="42.69152" lon="1.39877">
        <ele>2210</ele>
        <time>2020-08-24T10:54:25Z</time>
      </trkpt>
      <trkpt lat="42.69154" lon="1.3989">
        <ele>2210</ele>
        <time>2020-08-24T10:54:37Z</time>
      </trkpt>
      <trkpt lat="42.69155" lon="1.39902">
        <ele>2210</ele>
        <time>2020-08-24T10:54:47Z</time>
      </trkpt>
      <trkpt lat="42.6915" lon="1.39913">
        <ele>2208</ele>
        <time>2020-08-24T10:54:54Z</time>
      </trkpt>
      <trkpt lat="42.69146" lon="1.39926">
        <ele>2203</ele>
        <time>2020-08-24T10:55:06Z</time>
      </trkpt>
      <trkpt lat="42.69145" lon="1.39939">
        <ele>2202</ele>
        <time>2020-08-24T10:55:17Z</time>
      </trkpt>
      <trkpt lat="42.69144" lon="1.39952">
        <ele>2197</ele>
        <time>2020-08-24T10:55:26Z</time>
      </trkpt>
      <trkpt lat="42.69142" lon="1.39965">
        <ele>2193</ele>
        <time>2020-08-24T10:55:35Z</time>
      </trkpt>
      <trkpt lat="42.6914" lon="1.39977">
        <ele>2188</ele>
        <time>2020-08-24T10:55:43Z</time>
      </trkpt>
      <trkpt lat="42.69135" lon="1.39992">
        <ele>2189</ele>
        <time>2020-08-24T10:57:05Z</time>
      </trkpt>
      <trkpt lat="42.69145" lon="1.39997">
        <ele>2185</ele>
        <time>2020-08-24T10:57:20Z</time>
      </trkpt>
      <trkpt lat="42.69154" lon="1.40003">
        <ele>2183</ele>
        <time>2020-08-24T10:57:29Z</time>
      </trkpt>
      <trkpt lat="42.69155" lon="1.40017">
        <ele>2181</ele>
        <time>2020-08-24T10:57:39Z</time>
      </trkpt>
      <trkpt lat="42.69155" lon="1.40029">
        <ele>2183</ele>
        <time>2020-08-24T10:57:52Z</time>
      </trkpt>
      <trkpt lat="42.69162" lon="1.40037">
        <ele>2185</ele>
        <time>2020-08-24T10:58:02Z</time>
      </trkpt>
      <trkpt lat="42.69172" lon="1.40035">
        <ele>2180</ele>
        <time>2020-08-24T10:58:19Z</time>
      </trkpt>
      <trkpt lat="42.69181" lon="1.40034">
        <ele>2170</ele>
        <time>2020-08-24T10:58:41Z</time>
      </trkpt>
      <trkpt lat="42.69182" lon="1.40048">
        <ele>2176</ele>
        <time>2020-08-24T10:58:51Z</time>
      </trkpt>
      <trkpt lat="42.69181" lon="1.40066">
        <ele>2167</ele>
        <time>2020-08-24T10:59:11Z</time>
      </trkpt>
      <trkpt lat="42.69185" lon="1.40077">
        <ele>2165</ele>
        <time>2020-08-24T10:59:25Z</time>
      </trkpt>
      <trkpt lat="42.6919" lon="1.40089">
        <ele>2163</ele>
        <time>2020-08-24T10:59:35Z</time>
      </trkpt>
      <trkpt lat="42.69193" lon="1.40101">
        <ele>2161</ele>
        <time>2020-08-24T10:59:46Z</time>
      </trkpt>
      <trkpt lat="42.69196" lon="1.40113">
        <ele>2161</ele>
        <time>2020-08-24T10:59:54Z</time>
      </trkpt>
      <trkpt lat="42.69197" lon="1.40126">
        <ele>2155</ele>
        <time>2020-08-24T11:00:03Z</time>
      </trkpt>
      <trkpt lat="42.692" lon="1.40138">
        <ele>2152</ele>
        <time>2020-08-24T11:00:15Z</time>
      </trkpt>
      <trkpt lat="42.69208" lon="1.40144">
        <ele>2155</ele>
        <time>2020-08-24T11:00:30Z</time>
      </trkpt>
      <trkpt lat="42.69214" lon="1.4016">
        <ele>2154</ele>
        <time>2020-08-24T11:00:45Z</time>
      </trkpt>
      <trkpt lat="42.69215" lon="1.40173">
        <ele>2152</ele>
        <time>2020-08-24T11:00:56Z</time>
      </trkpt>
      <trkpt lat="42.69222" lon="1.40184">
        <ele>2145</ele>
        <time>2020-08-24T11:01:04Z</time>
      </trkpt>
      <trkpt lat="42.69229" lon="1.40192">
        <ele>2132</ele>
        <time>2020-08-24T11:02:06Z</time>
      </trkpt>
      <trkpt lat="42.6924" lon="1.40201">
        <ele>2133</ele>
        <time>2020-08-24T11:02:53Z</time>
      </trkpt>
      <trkpt lat="42.69244" lon="1.40213">
        <ele>2132</ele>
        <time>2020-08-24T11:03:05Z</time>
      </trkpt>
      <trkpt lat="42.69254" lon="1.402">
        <ele>2124</ele>
        <time>2020-08-24T11:03:29Z</time>
      </trkpt>
      <trkpt lat="42.69261" lon="1.40209">
        <ele>2111</ele>
        <time>2020-08-24T11:05:00Z</time>
      </trkpt>
      <trkpt lat="42.69267" lon="1.40223">
        <ele>2112</ele>
        <time>2020-08-24T11:05:27Z</time>
      </trkpt>
      <trkpt lat="42.69273" lon="1.40233">
        <ele>2111</ele>
        <time>2020-08-24T11:05:57Z</time>
      </trkpt>
      <trkpt lat="42.6928" lon="1.40242">
        <ele>2110</ele>
        <time>2020-08-24T11:06:08Z</time>
      </trkpt>
      <trkpt lat="42.69286" lon="1.40253">
        <ele>2111</ele>
        <time>2020-08-24T11:06:16Z</time>
      </trkpt>
      <trkpt lat="42.69285" lon="1.40266">
        <ele>2109</ele>
        <time>2020-08-24T11:06:25Z</time>
      </trkpt>
      <trkpt lat="42.69279" lon="1.40276">
        <ele>2109</ele>
        <time>2020-08-24T11:06:34Z</time>
      </trkpt>
      <trkpt lat="42.6929" lon="1.40284">
        <ele>2107</ele>
        <time>2020-08-24T11:06:51Z</time>
      </trkpt>
      <trkpt lat="42.69298" lon="1.40275">
        <ele>2106</ele>
        <time>2020-08-24T11:08:50Z</time>
      </trkpt>
      <trkpt lat="42.69307" lon="1.40278">
        <ele>2095</ele>
        <time>2020-08-24T11:09:22Z</time>
      </trkpt>
      <trkpt lat="42.69316" lon="1.40279">
        <ele>2088</ele>
        <time>2020-08-24T11:09:35Z</time>
      </trkpt>
      <trkpt lat="42.69323" lon="1.40289">
        <ele>2084</ele>
        <time>2020-08-24T11:09:50Z</time>
      </trkpt>
      <trkpt lat="42.69324" lon="1.40302">
        <ele>2082</ele>
        <time>2020-08-24T11:09:59Z</time>
      </trkpt>
      <trkpt lat="42.69323" lon="1.40314">
        <ele>2081</ele>
        <time>2020-08-24T11:10:07Z</time>
      </trkpt>
      <trkpt lat="42.6932" lon="1.40328">
        <ele>2082</ele>
        <time>2020-08-24T11:10:17Z</time>
      </trkpt>
      <trkpt lat="42.69316" lon="1.40339">
        <ele>2082</ele>
        <time>2020-08-24T11:10:35Z</time>
      </trkpt>
      <trkpt lat="42.69318" lon="1.40358">
        <ele>2077</ele>
        <time>2020-08-24T11:11:05Z</time>
      </trkpt>
      <trkpt lat="42.6932" lon="1.4037">
        <ele>2070</ele>
        <time>2020-08-24T11:11:15Z</time>
      </trkpt>
      <trkpt lat="42.69324" lon="1.40384">
        <ele>2068</ele>
        <time>2020-08-24T11:11:25Z</time>
      </trkpt>
      <trkpt lat="42.69328" lon="1.40395">
        <ele>2066</ele>
        <time>2020-08-24T11:11:37Z</time>
      </trkpt>
      <trkpt lat="42.69336" lon="1.40403">
        <ele>2065</ele>
        <time>2020-08-24T11:11:49Z</time>
      </trkpt>
      <trkpt lat="42.69342" lon="1.40413">
        <ele>2061</ele>
        <time>2020-08-24T11:12:02Z</time>
      </trkpt>
      <trkpt lat="42.69347" lon="1.40423">
        <ele>2055</ele>
        <time>2020-08-24T11:12:16Z</time>
      </trkpt>
      <trkpt lat="42.69346" lon="1.40437">
        <ele>2055</ele>
        <time>2020-08-24T11:12:29Z</time>
      </trkpt>
      <trkpt lat="42.69356" lon="1.40445">
        <ele>2054</ele>
        <time>2020-08-24T11:12:49Z</time>
      </trkpt>
      <trkpt lat="42.69366" lon="1.40445">
        <ele>2058</ele>
        <time>2020-08-24T11:13:02Z</time>
      </trkpt>
      <trkpt lat="42.69375" lon="1.40449">
        <ele>2058</ele>
        <time>2020-08-24T11:13:13Z</time>
      </trkpt>
      <trkpt lat="42.69386" lon="1.40459">
        <ele>2056</ele>
        <time>2020-08-24T11:13:30Z</time>
      </trkpt>
      <trkpt lat="42.69392" lon="1.4047">
        <ele>2056</ele>
        <time>2020-08-24T11:13:40Z</time>
      </trkpt>
      <trkpt lat="42.69397" lon="1.40481">
        <ele>2056</ele>
        <time>2020-08-24T11:13:49Z</time>
      </trkpt>
      <trkpt lat="42.69406" lon="1.40487">
        <ele>2058</ele>
        <time>2020-08-24T11:14:28Z</time>
      </trkpt>
      <trkpt lat="42.69412" lon="1.40497">
        <ele>2057</ele>
        <time>2020-08-24T11:14:37Z</time>
      </trkpt>
      <trkpt lat="42.69419" lon="1.40506">
        <ele>2059</ele>
        <time>2020-08-24T11:14:46Z</time>
      </trkpt>
      <trkpt lat="42.69426" lon="1.40514">
        <ele>2058</ele>
        <time>2020-08-24T11:14:54Z</time>
      </trkpt>
      <trkpt lat="42.69435" lon="1.40519">
        <ele>2054</ele>
        <time>2020-08-24T11:15:04Z</time>
      </trkpt>
      <trkpt lat="42.69444" lon="1.40524">
        <ele>2052</ele>
        <time>2020-08-24T11:15:14Z</time>
      </trkpt>
      <trkpt lat="42.69454" lon="1.40522">
        <ele>2055</ele>
        <time>2020-08-24T11:15:23Z</time>
      </trkpt>
      <trkpt lat="42.69463" lon="1.40521">
        <ele>2057</ele>
        <time>2020-08-24T11:15:33Z</time>
      </trkpt>
      <trkpt lat="42.69473" lon="1.40524">
        <ele>2052</ele>
        <time>2020-08-24T11:15:44Z</time>
      </trkpt>
      <trkpt lat="42.69483" lon="1.40525">
        <ele>2049</ele>
        <time>2020-08-24T11:16:04Z</time>
      </trkpt>
      <trkpt lat="42.69492" lon="1.40528">
        <ele>2043</ele>
        <time>2020-08-24T11:16:20Z</time>
      </trkpt>
      <trkpt lat="42.69501" lon="1.40529">
        <ele>2040</ele>
        <time>2020-08-24T11:16:35Z</time>
      </trkpt>
      <trkpt lat="42.69514" lon="1.40532">
        <ele>2035</ele>
        <time>2020-08-24T11:16:49Z</time>
      </trkpt>
      <trkpt lat="42.69522" lon="1.40538">
        <ele>2030</ele>
        <time>2020-08-24T11:17:00Z</time>
      </trkpt>
      <trkpt lat="42.69531" lon="1.40538">
        <ele>2030</ele>
        <time>2020-08-24T11:17:17Z</time>
      </trkpt>
      <trkpt lat="42.69542" lon="1.40539">
        <ele>2023</ele>
        <time>2020-08-24T11:17:38Z</time>
      </trkpt>
      <trkpt lat="42.69552" lon="1.4054">
        <ele>2020</ele>
        <time>2020-08-24T11:17:47Z</time>
      </trkpt>
      <trkpt lat="42.69561" lon="1.40542">
        <ele>2018</ele>
        <time>2020-08-24T11:18:00Z</time>
      </trkpt>
      <trkpt lat="42.6957" lon="1.40545">
        <ele>2014</ele>
        <time>2020-08-24T11:18:14Z</time>
      </trkpt>
      <trkpt lat="42.69577" lon="1.40536">
        <ele>2004</ele>
        <time>2020-08-24T11:18:24Z</time>
      </trkpt>
      <trkpt lat="42.69582" lon="1.40525">
        <ele>1999</ele>
        <time>2020-08-24T11:18:40Z</time>
      </trkpt>
      <trkpt lat="42.69595" lon="1.40528">
        <ele>1998</ele>
        <time>2020-08-24T11:19:06Z</time>
      </trkpt>
      <trkpt lat="42.69598" lon="1.4054">
        <ele>1995</ele>
        <time>2020-08-24T11:19:15Z</time>
      </trkpt>
      <trkpt lat="42.69607" lon="1.40537">
        <ele>1977</ele>
        <time>2020-08-24T11:19:48Z</time>
      </trkpt>
      <trkpt lat="42.69619" lon="1.40537">
        <ele>1973</ele>
        <time>2020-08-24T11:20:07Z</time>
      </trkpt>
      <trkpt lat="42.69632" lon="1.40542">
        <ele>1966</ele>
        <time>2020-08-24T11:20:28Z</time>
      </trkpt>
      <trkpt lat="42.69638" lon="1.40552">
        <ele>1965</ele>
        <time>2020-08-24T11:20:40Z</time>
      </trkpt>
      <trkpt lat="42.69646" lon="1.40561">
        <ele>1959</ele>
        <time>2020-08-24T11:20:51Z</time>
      </trkpt>
      <trkpt lat="42.69651" lon="1.40572">
        <ele>1953</ele>
        <time>2020-08-24T11:21:05Z</time>
      </trkpt>
      <trkpt lat="42.69647" lon="1.40584">
        <ele>1949</ele>
        <time>2020-08-24T11:21:17Z</time>
      </trkpt>
      <trkpt lat="42.69641" lon="1.40594">
        <ele>1948</ele>
        <time>2020-08-24T11:21:25Z</time>
      </trkpt>
      <trkpt lat="42.69633" lon="1.406">
        <ele>1947</ele>
        <time>2020-08-24T11:21:31Z</time>
      </trkpt>
      <trkpt lat="42.6963" lon="1.40612">
        <ele>1951</ele>
        <time>2020-08-24T11:21:42Z</time>
      </trkpt>
      <trkpt lat="42.69628" lon="1.40626">
        <ele>1951</ele>
        <time>2020-08-24T11:21:53Z</time>
      </trkpt>
      <trkpt lat="42.69627" lon="1.40639">
        <ele>1948</ele>
        <time>2020-08-24T11:22:03Z</time>
      </trkpt>
      <trkpt lat="42.69631" lon="1.40651">
        <ele>1946</ele>
        <time>2020-08-24T11:22:17Z</time>
      </trkpt>
      <trkpt lat="42.69633" lon="1.40664">
        <ele>1945</ele>
        <time>2020-08-24T11:23:07Z</time>
      </trkpt>
      <trkpt lat="42.69643" lon="1.40664">
        <ele>1942</ele>
        <time>2020-08-24T11:27:35Z</time>
      </trkpt>
      <trkpt lat="42.69652" lon="1.40668">
        <ele>1944</ele>
        <time>2020-08-24T11:27:46Z</time>
      </trkpt>
      <trkpt lat="42.6966" lon="1.40676">
        <ele>1947</ele>
        <time>2020-08-24T11:27:58Z</time>
      </trkpt>
      <trkpt lat="42.69667" lon="1.40686">
        <ele>1951</ele>
        <time>2020-08-24T11:28:07Z</time>
      </trkpt>
      <trkpt lat="42.69674" lon="1.40695">
        <ele>1953</ele>
        <time>2020-08-24T11:28:18Z</time>
      </trkpt>
      <trkpt lat="42.69683" lon="1.407">
        <ele>1943</ele>
        <time>2020-08-24T11:31:00Z</time>
      </trkpt>
      <trkpt lat="42.69687" lon="1.40711">
        <ele>1942</ele>
        <time>2020-08-24T11:31:09Z</time>
      </trkpt>
      <trkpt lat="42.69689" lon="1.40723">
        <ele>1943</ele>
        <time>2020-08-24T11:31:20Z</time>
      </trkpt>
      <trkpt lat="42.69689" lon="1.40736">
        <ele>1946</ele>
        <time>2020-08-24T11:31:35Z</time>
      </trkpt>
      <trkpt lat="42.69686" lon="1.40748">
        <ele>1945</ele>
        <time>2020-08-24T11:31:52Z</time>
      </trkpt>
      <trkpt lat="42.69689" lon="1.40761">
        <ele>1950</ele>
        <time>2020-08-24T11:32:05Z</time>
      </trkpt>
      <trkpt lat="42.69697" lon="1.40769">
        <ele>1951</ele>
        <time>2020-08-24T11:32:24Z</time>
      </trkpt>
      <trkpt lat="42.69702" lon="1.4078">
        <ele>1951</ele>
        <time>2020-08-24T11:32:33Z</time>
      </trkpt>
      <trkpt lat="42.69709" lon="1.40789">
        <ele>1953</ele>
        <time>2020-08-24T11:32:41Z</time>
      </trkpt>
      <trkpt lat="42.69717" lon="1.40797">
        <ele>1952</ele>
        <time>2020-08-24T11:32:49Z</time>
      </trkpt>
      <trkpt lat="42.69725" lon="1.40803">
        <ele>1954</ele>
        <time>2020-08-24T11:32:57Z</time>
      </trkpt>
      <trkpt lat="42.69734" lon="1.40803">
        <ele>1950</ele>
        <time>2020-08-24T11:33:07Z</time>
      </trkpt>
      <trkpt lat="42.69744" lon="1.40802">
        <ele>1953</ele>
        <time>2020-08-24T11:33:23Z</time>
      </trkpt>
      <trkpt lat="42.69752" lon="1.40809">
        <ele>1951</ele>
        <time>2020-08-24T11:33:38Z</time>
      </trkpt>
      <trkpt lat="42.69761" lon="1.40813">
        <ele>1948</ele>
        <time>2020-08-24T11:33:50Z</time>
      </trkpt>
      <trkpt lat="42.6977" lon="1.40815">
        <ele>1947</ele>
        <time>2020-08-24T11:33:59Z</time>
      </trkpt>
      <trkpt lat="42.69779" lon="1.40819">
        <ele>1939</ele>
        <time>2020-08-24T11:34:08Z</time>
      </trkpt>
      <trkpt lat="42.69788" lon="1.40821">
        <ele>1937</ele>
        <time>2020-08-24T11:34:17Z</time>
      </trkpt>
      <trkpt lat="42.69799" lon="1.40819">
        <ele>1933</ele>
        <time>2020-08-24T11:34:26Z</time>
      </trkpt>
      <trkpt lat="42.69809" lon="1.40817">
        <ele>1924</ele>
        <time>2020-08-24T11:34:37Z</time>
      </trkpt>
      <trkpt lat="42.69818" lon="1.40804">
        <ele>1914</ele>
        <time>2020-08-24T11:34:53Z</time>
      </trkpt>
      <trkpt lat="42.69825" lon="1.40794">
        <ele>1912</ele>
        <time>2020-08-24T11:35:09Z</time>
      </trkpt>
      <trkpt lat="42.69828" lon="1.40782">
        <ele>1906</ele>
        <time>2020-08-24T11:35:21Z</time>
      </trkpt>
      <trkpt lat="42.69832" lon="1.40771">
        <ele>1899</ele>
        <time>2020-08-24T11:35:37Z</time>
      </trkpt>
      <trkpt lat="42.69842" lon="1.40773">
        <ele>1896</ele>
        <time>2020-08-24T11:35:56Z</time>
      </trkpt>
      <trkpt lat="42.69852" lon="1.40775">
        <ele>1892</ele>
        <time>2020-08-24T11:36:10Z</time>
      </trkpt>
      <trkpt lat="42.69861" lon="1.40773">
        <ele>1892</ele>
        <time>2020-08-24T11:36:22Z</time>
      </trkpt>
      <trkpt lat="42.6987" lon="1.40774">
        <ele>1888</ele>
        <time>2020-08-24T11:36:35Z</time>
      </trkpt>
      <trkpt lat="42.69877" lon="1.40783">
        <ele>1884</ele>
        <time>2020-08-24T11:36:50Z</time>
      </trkpt>
      <trkpt lat="42.69887" lon="1.40783">
        <ele>1884</ele>
        <time>2020-08-24T11:37:00Z</time>
      </trkpt>
      <trkpt lat="42.699" lon="1.4078">
        <ele>1879</ele>
        <time>2020-08-24T11:37:21Z</time>
      </trkpt>
      <trkpt lat="42.69913" lon="1.40773">
        <ele>1870</ele>
        <time>2020-08-24T11:37:50Z</time>
      </trkpt>
      <trkpt lat="42.6992" lon="1.40766">
        <ele>1863</ele>
        <time>2020-08-24T11:38:02Z</time>
      </trkpt>
      <trkpt lat="42.69927" lon="1.40755">
        <ele>1856</ele>
        <time>2020-08-24T11:38:15Z</time>
      </trkpt>
      <trkpt lat="42.6993" lon="1.40742">
        <ele>1855</ele>
        <time>2020-08-24T11:38:25Z</time>
      </trkpt>
      <trkpt lat="42.69935" lon="1.40732">
        <ele>1849</ele>
        <time>2020-08-24T11:38:33Z</time>
      </trkpt>
      <trkpt lat="42.69943" lon="1.40725">
        <ele>1847</ele>
        <time>2020-08-24T11:38:41Z</time>
      </trkpt>
      <trkpt lat="42.69953" lon="1.40724">
        <ele>1845</ele>
        <time>2020-08-24T11:38:50Z</time>
      </trkpt>
      <trkpt lat="42.69962" lon="1.40724">
        <ele>1842</ele>
        <time>2020-08-24T11:39:00Z</time>
      </trkpt>
      <trkpt lat="42.69972" lon="1.40722">
        <ele>1834</ele>
        <time>2020-08-24T11:39:12Z</time>
      </trkpt>
      <trkpt lat="42.69981" lon="1.40708">
        <ele>1830</ele>
        <time>2020-08-24T11:39:30Z</time>
      </trkpt>
      <trkpt lat="42.69989" lon="1.40702">
        <ele>1833</ele>
        <time>2020-08-24T11:39:41Z</time>
      </trkpt>
      <trkpt lat="42.69997" lon="1.40695">
        <ele>1831</ele>
        <time>2020-08-24T11:39:54Z</time>
      </trkpt>
      <trkpt lat="42.70003" lon="1.40685">
        <ele>1831</ele>
        <time>2020-08-24T11:40:07Z</time>
      </trkpt>
      <trkpt lat="42.70011" lon="1.40678">
        <ele>1829</ele>
        <time>2020-08-24T11:40:19Z</time>
      </trkpt>
      <trkpt lat="42.70019" lon="1.40671">
        <ele>1830</ele>
        <time>2020-08-24T11:40:30Z</time>
      </trkpt>
      <trkpt lat="42.70029" lon="1.40669">
        <ele>1823</ele>
        <time>2020-08-24T11:40:42Z</time>
      </trkpt>
      <trkpt lat="42.7004" lon="1.4066">
        <ele>1821</ele>
        <time>2020-08-24T11:41:37Z</time>
      </trkpt>
      <trkpt lat="42.70045" lon="1.40649">
        <ele>1820</ele>
        <time>2020-08-24T11:41:55Z</time>
      </trkpt>
      <trkpt lat="42.70044" lon="1.40637">
        <ele>1814</ele>
        <time>2020-08-24T11:42:02Z</time>
      </trkpt>
      <trkpt lat="42.70043" lon="1.40623">
        <ele>1809</ele>
        <time>2020-08-24T11:42:12Z</time>
      </trkpt>
      <trkpt lat="42.70041" lon="1.40611">
        <ele>1807</ele>
        <time>2020-08-24T11:42:24Z</time>
      </trkpt>
      <trkpt lat="42.7004" lon="1.40599">
        <ele>1801</ele>
        <time>2020-08-24T11:42:42Z</time>
      </trkpt>
      <trkpt lat="42.70043" lon="1.40586">
        <ele>1794</ele>
        <time>2020-08-24T11:43:20Z</time>
      </trkpt>
      <trkpt lat="42.70052" lon="1.40587">
        <ele>1795</ele>
        <time>2020-08-24T11:43:31Z</time>
      </trkpt>
      <trkpt lat="42.70061" lon="1.406">
        <ele>1789</ele>
        <time>2020-08-24T11:43:59Z</time>
      </trkpt>
      <trkpt lat="42.70071" lon="1.406">
        <ele>1786</ele>
        <time>2020-08-24T11:44:08Z</time>
      </trkpt>
      <trkpt lat="42.70078" lon="1.40608">
        <ele>1784</ele>
        <time>2020-08-24T11:44:22Z</time>
      </trkpt>
      <trkpt lat="42.70085" lon="1.40623">
        <ele>1781</ele>
        <time>2020-08-24T11:44:35Z</time>
      </trkpt>
      <trkpt lat="42.70089" lon="1.40634">
        <ele>1779</ele>
        <time>2020-08-24T11:44:44Z</time>
      </trkpt>
      <trkpt lat="42.70095" lon="1.40644">
        <ele>1778</ele>
        <time>2020-08-24T11:44:54Z</time>
      </trkpt>
      <trkpt lat="42.70107" lon="1.40651">
        <ele>1770</ele>
        <time>2020-08-24T11:45:26Z</time>
      </trkpt>
      <trkpt lat="42.70109" lon="1.40664">
        <ele>1768</ele>
        <time>2020-08-24T11:45:44Z</time>
      </trkpt>
      <trkpt lat="42.70117" lon="1.4067">
        <ele>1763</ele>
        <time>2020-08-24T11:46:01Z</time>
      </trkpt>
      <trkpt lat="42.70127" lon="1.40669">
        <ele>1761</ele>
        <time>2020-08-24T11:46:10Z</time>
      </trkpt>
      <trkpt lat="42.7014" lon="1.40673">
        <ele>1758</ele>
        <time>2020-08-24T11:46:40Z</time>
      </trkpt>
      <trkpt lat="42.70149" lon="1.40668">
        <ele>1757</ele>
        <time>2020-08-24T11:46:53Z</time>
      </trkpt>
      <trkpt lat="42.70156" lon="1.40661">
        <ele>1753</ele>
        <time>2020-08-24T11:47:09Z</time>
      </trkpt>
      <trkpt lat="42.7016" lon="1.40648">
        <ele>1752</ele>
        <time>2020-08-24T11:47:36Z</time>
      </trkpt>
      <trkpt lat="42.70167" lon="1.40641">
        <ele>1745</ele>
        <time>2020-08-24T11:47:50Z</time>
      </trkpt>
      <trkpt lat="42.70176" lon="1.40643">
        <ele>1742</ele>
        <time>2020-08-24T11:48:04Z</time>
      </trkpt>
      <trkpt lat="42.70184" lon="1.40648">
        <ele>1736</ele>
        <time>2020-08-24T11:48:23Z</time>
      </trkpt>
      <trkpt lat="42.70194" lon="1.40646">
        <ele>1735</ele>
        <time>2020-08-24T11:48:36Z</time>
      </trkpt>
      <trkpt lat="42.70204" lon="1.40648">
        <ele>1732</ele>
        <time>2020-08-24T11:48:47Z</time>
      </trkpt>
      <trkpt lat="42.70214" lon="1.40649">
        <ele>1727</ele>
        <time>2020-08-24T11:48:59Z</time>
      </trkpt>
      <trkpt lat="42.70223" lon="1.40644">
        <ele>1725</ele>
        <time>2020-08-24T11:49:11Z</time>
      </trkpt>
      <trkpt lat="42.70233" lon="1.40642">
        <ele>1720</ele>
        <time>2020-08-24T11:49:24Z</time>
      </trkpt>
      <trkpt lat="42.7024" lon="1.40633">
        <ele>1713</ele>
        <time>2020-08-24T11:49:52Z</time>
      </trkpt>
      <trkpt lat="42.70242" lon="1.4062">
        <ele>1708</ele>
        <time>2020-08-24T11:50:07Z</time>
      </trkpt>
      <trkpt lat="42.70237" lon="1.40608">
        <ele>1705</ele>
        <time>2020-08-24T11:50:18Z</time>
      </trkpt>
      <trkpt lat="42.70235" lon="1.40596">
        <ele>1703</ele>
        <time>2020-08-24T11:50:42Z</time>
      </trkpt>
      <trkpt lat="42.70239" lon="1.40585">
        <ele>1702</ele>
        <time>2020-08-24T11:50:54Z</time>
      </trkpt>
      <trkpt lat="42.70239" lon="1.40573">
        <ele>1698</ele>
        <time>2020-08-24T11:51:08Z</time>
      </trkpt>
      <trkpt lat="42.7024" lon="1.4056">
        <ele>1695</ele>
        <time>2020-08-24T11:51:30Z</time>
      </trkpt>
      <trkpt lat="42.70246" lon="1.40572">
        <ele>1688</ele>
        <time>2020-08-24T11:54:46Z</time>
      </trkpt>
      <trkpt lat="42.70253" lon="1.40582">
        <ele>1684</ele>
        <time>2020-08-24T11:54:57Z</time>
      </trkpt>
      <trkpt lat="42.70261" lon="1.4059">
        <ele>1679</ele>
        <time>2020-08-24T11:55:06Z</time>
      </trkpt>
      <trkpt lat="42.70271" lon="1.40595">
        <ele>1680</ele>
        <time>2020-08-24T11:55:15Z</time>
      </trkpt>
      <trkpt lat="42.7028" lon="1.40598">
        <ele>1679</ele>
        <time>2020-08-24T11:55:35Z</time>
      </trkpt>
      <trkpt lat="42.70289" lon="1.406">
        <ele>1677</ele>
        <time>2020-08-24T11:55:45Z</time>
      </trkpt>
      <trkpt lat="42.70298" lon="1.40596">
        <ele>1674</ele>
        <time>2020-08-24T11:55:52Z</time>
      </trkpt>
      <trkpt lat="42.70304" lon="1.40587">
        <ele>1673</ele>
        <time>2020-08-24T11:55:59Z</time>
      </trkpt>
      <trkpt lat="42.70314" lon="1.40583">
        <ele>1671</ele>
        <time>2020-08-24T11:56:08Z</time>
      </trkpt>
      <trkpt lat="42.70323" lon="1.4058">
        <ele>1667</ele>
        <time>2020-08-24T11:56:20Z</time>
      </trkpt>
      <trkpt lat="42.70333" lon="1.40578">
        <ele>1667</ele>
        <time>2020-08-24T11:56:36Z</time>
      </trkpt>
      <trkpt lat="42.70341" lon="1.40584">
        <ele>1663</ele>
        <time>2020-08-24T11:56:49Z</time>
      </trkpt>
      <trkpt lat="42.7035" lon="1.4059">
        <ele>1658</ele>
        <time>2020-08-24T11:57:07Z</time>
      </trkpt>
      <trkpt lat="42.70359" lon="1.40591">
        <ele>1655</ele>
        <time>2020-08-24T11:57:30Z</time>
      </trkpt>
      <trkpt lat="42.70368" lon="1.40597">
        <ele>1653</ele>
        <time>2020-08-24T11:57:48Z</time>
      </trkpt>
      <trkpt lat="42.70375" lon="1.40605">
        <ele>1651</ele>
        <time>2020-08-24T11:57:56Z</time>
      </trkpt>
      <trkpt lat="42.70387" lon="1.40608">
        <ele>1642</ele>
        <time>2020-08-24T12:00:42Z</time>
      </trkpt>
      <trkpt lat="42.70396" lon="1.40612">
        <ele>1639</ele>
        <time>2020-08-24T12:00:50Z</time>
      </trkpt>
      <trkpt lat="42.70403" lon="1.40621">
        <ele>1639</ele>
        <time>2020-08-24T12:01:00Z</time>
      </trkpt>
      <trkpt lat="42.70409" lon="1.40631">
        <ele>1636</ele>
        <time>2020-08-24T12:01:21Z</time>
      </trkpt>
      <trkpt lat="42.7041" lon="1.40643">
        <ele>1635</ele>
        <time>2020-08-24T12:01:32Z</time>
      </trkpt>
      <trkpt lat="42.70418" lon="1.4065">
        <ele>1625</ele>
        <time>2020-08-24T12:01:49Z</time>
      </trkpt>
      <trkpt lat="42.7043" lon="1.40644">
        <ele>1625</ele>
        <time>2020-08-24T12:02:13Z</time>
      </trkpt>
      <trkpt lat="42.70438" lon="1.40649">
        <ele>1628</ele>
        <time>2020-08-24T12:02:35Z</time>
      </trkpt>
      <trkpt lat="42.70447" lon="1.40645">
        <ele>1612</ele>
        <time>2020-08-24T12:03:22Z</time>
      </trkpt>
      <trkpt lat="42.70456" lon="1.40649">
        <ele>1608</ele>
        <time>2020-08-24T12:03:33Z</time>
      </trkpt>
      <trkpt lat="42.70469" lon="1.40648">
        <ele>1607</ele>
        <time>2020-08-24T12:04:01Z</time>
      </trkpt>
      <trkpt lat="42.70475" lon="1.40635">
        <ele>1602</ele>
        <time>2020-08-24T12:04:34Z</time>
      </trkpt>
      <trkpt lat="42.70484" lon="1.40639">
        <ele>1602</ele>
        <time>2020-08-24T12:04:41Z</time>
      </trkpt>
      <trkpt lat="42.70491" lon="1.40649">
        <ele>1598</ele>
        <time>2020-08-24T12:04:50Z</time>
      </trkpt>
      <trkpt lat="42.70498" lon="1.40656">
        <ele>1597</ele>
        <time>2020-08-24T12:05:03Z</time>
      </trkpt>
      <trkpt lat="42.70502" lon="1.4067">
        <ele>1589</ele>
        <time>2020-08-24T12:05:25Z</time>
      </trkpt>
      <trkpt lat="42.70497" lon="1.40681">
        <ele>1587</ele>
        <time>2020-08-24T12:05:40Z</time>
      </trkpt>
      <trkpt lat="42.70506" lon="1.40686">
        <ele>1582</ele>
        <time>2020-08-24T12:06:01Z</time>
      </trkpt>
      <trkpt lat="42.70515" lon="1.40683">
        <ele>1574</ele>
        <time>2020-08-24T12:06:22Z</time>
      </trkpt>
      <trkpt lat="42.70522" lon="1.40675">
        <ele>1574</ele>
        <time>2020-08-24T12:06:28Z</time>
      </trkpt>
      <trkpt lat="42.70529" lon="1.40666">
        <ele>1573</ele>
        <time>2020-08-24T12:06:37Z</time>
      </trkpt>
      <trkpt lat="42.70537" lon="1.40675">
        <ele>1567</ele>
        <time>2020-08-24T12:07:01Z</time>
      </trkpt>
      <trkpt lat="42.70538" lon="1.40687">
        <ele>1562</ele>
        <time>2020-08-24T12:07:16Z</time>
      </trkpt>
      <trkpt lat="42.70543" lon="1.40699">
        <ele>1563</ele>
        <time>2020-08-24T12:07:29Z</time>
      </trkpt>
      <trkpt lat="42.70544" lon="1.40712">
        <ele>1561</ele>
        <time>2020-08-24T12:07:46Z</time>
      </trkpt>
      <trkpt lat="42.70544" lon="1.40725">
        <ele>1562</ele>
        <time>2020-08-24T12:07:55Z</time>
      </trkpt>
      <trkpt lat="42.70539" lon="1.40738">
        <ele>1561</ele>
        <time>2020-08-24T12:08:03Z</time>
      </trkpt>
      <trkpt lat="42.70535" lon="1.40749">
        <ele>1553</ele>
        <time>2020-08-24T12:08:14Z</time>
      </trkpt>
      <trkpt lat="42.70543" lon="1.40755">
        <ele>1544</ele>
        <time>2020-08-24T12:08:30Z</time>
      </trkpt>
      <trkpt lat="42.70553" lon="1.40753">
        <ele>1545</ele>
        <time>2020-08-24T12:08:37Z</time>
      </trkpt>
      <trkpt lat="42.70562" lon="1.40747">
        <ele>1548</ele>
        <time>2020-08-24T12:08:44Z</time>
      </trkpt>
      <trkpt lat="42.70571" lon="1.4074">
        <ele>1548</ele>
        <time>2020-08-24T12:08:53Z</time>
      </trkpt>
      <trkpt lat="42.70576" lon="1.40751">
        <ele>1544</ele>
        <time>2020-08-24T12:09:16Z</time>
      </trkpt>
      <trkpt lat="42.70578" lon="1.40764">
        <ele>1544</ele>
        <time>2020-08-24T12:09:28Z</time>
      </trkpt>
      <trkpt lat="42.70572" lon="1.40773">
        <ele>1541</ele>
        <time>2020-08-24T12:09:54Z</time>
      </trkpt>
      <trkpt lat="42.70572" lon="1.40791">
        <ele>1545</ele>
        <time>2020-08-24T12:10:13Z</time>
      </trkpt>
      <trkpt lat="42.70573" lon="1.40804">
        <ele>1545</ele>
        <time>2020-08-24T12:10:21Z</time>
      </trkpt>
      <trkpt lat="42.7058" lon="1.40818">
        <ele>1540</ele>
        <time>2020-08-24T12:10:31Z</time>
      </trkpt>
      <trkpt lat="42.70586" lon="1.40827">
        <ele>1539</ele>
        <time>2020-08-24T12:10:40Z</time>
      </trkpt>
      <trkpt lat="42.70596" lon="1.40829">
        <ele>1534</ele>
        <time>2020-08-24T12:10:50Z</time>
      </trkpt>
      <trkpt lat="42.70608" lon="1.40821">
        <ele>1527</ele>
        <time>2020-08-24T12:11:03Z</time>
      </trkpt>
      <trkpt lat="42.70613" lon="1.4081">
        <ele>1528</ele>
        <time>2020-08-24T12:11:11Z</time>
      </trkpt>
      <trkpt lat="42.70615" lon="1.40796">
        <ele>1524</ele>
        <time>2020-08-24T12:11:22Z</time>
      </trkpt>
      <trkpt lat="42.70623" lon="1.40791">
        <ele>1524</ele>
        <time>2020-08-24T12:11:54Z</time>
      </trkpt>
      <trkpt lat="42.70633" lon="1.40793">
        <ele>1522</ele>
        <time>2020-08-24T12:12:02Z</time>
      </trkpt>
      <trkpt lat="42.70637" lon="1.40804">
        <ele>1514</ele>
        <time>2020-08-24T12:12:15Z</time>
      </trkpt>
      <trkpt lat="42.70649" lon="1.40805">
        <ele>1500</ele>
        <time>2020-08-24T12:12:48Z</time>
      </trkpt>
      <trkpt lat="42.70658" lon="1.40811">
        <ele>1494</ele>
        <time>2020-08-24T12:13:04Z</time>
      </trkpt>
      <trkpt lat="42.70659" lon="1.40825">
        <ele>1495</ele>
        <time>2020-08-24T12:13:14Z</time>
      </trkpt>
      <trkpt lat="42.70659" lon="1.40838">
        <ele>1491</ele>
        <time>2020-08-24T12:13:21Z</time>
      </trkpt>
      <trkpt lat="42.70659" lon="1.40852">
        <ele>1489</ele>
        <time>2020-08-24T12:13:29Z</time>
      </trkpt>
      <trkpt lat="42.7066" lon="1.40865">
        <ele>1484</ele>
        <time>2020-08-24T12:13:39Z</time>
      </trkpt>
      <trkpt lat="42.70659" lon="1.40878">
        <ele>1483</ele>
        <time>2020-08-24T12:13:51Z</time>
      </trkpt>
      <trkpt lat="42.70657" lon="1.4089">
        <ele>1477</ele>
        <time>2020-08-24T12:14:03Z</time>
      </trkpt>
      <trkpt lat="42.70657" lon="1.40903">
        <ele>1475</ele>
        <time>2020-08-24T12:14:12Z</time>
      </trkpt>
      <trkpt lat="42.70658" lon="1.40915">
        <ele>1476</ele>
        <time>2020-08-24T12:14:24Z</time>
      </trkpt>
      <trkpt lat="42.70656" lon="1.40928">
        <ele>1480</ele>
        <time>2020-08-24T12:14:36Z</time>
      </trkpt>
      <trkpt lat="42.70653" lon="1.40941">
        <ele>1476</ele>
        <time>2020-08-24T12:14:47Z</time>
      </trkpt>
      <trkpt lat="42.70648" lon="1.40953">
        <ele>1474</ele>
        <time>2020-08-24T12:14:57Z</time>
      </trkpt>
      <trkpt lat="42.70645" lon="1.40967">
        <ele>1475</ele>
        <time>2020-08-24T12:15:05Z</time>
      </trkpt>
      <trkpt lat="42.70643" lon="1.4098">
        <ele>1476</ele>
        <time>2020-08-24T12:15:18Z</time>
      </trkpt>
      <trkpt lat="42.7065" lon="1.40989">
        <ele>1476</ele>
        <time>2020-08-24T12:15:31Z</time>
      </trkpt>
      <trkpt lat="42.70657" lon="1.40997">
        <ele>1472</ele>
        <time>2020-08-24T12:15:48Z</time>
      </trkpt>
      <trkpt lat="42.70662" lon="1.41008">
        <ele>1466</ele>
        <time>2020-08-24T12:15:58Z</time>
      </trkpt>
      <trkpt lat="42.70663" lon="1.41021">
        <ele>1463</ele>
        <time>2020-08-24T12:16:06Z</time>
      </trkpt>
      <trkpt lat="42.70665" lon="1.41035">
        <ele>1462</ele>
        <time>2020-08-24T12:16:13Z</time>
      </trkpt>
      <trkpt lat="42.70674" lon="1.41039">
        <ele>1463</ele>
        <time>2020-08-24T12:16:24Z</time>
      </trkpt>
      <trkpt lat="42.70684" lon="1.41038">
        <ele>1460</ele>
        <time>2020-08-24T12:16:34Z</time>
      </trkpt>
      <trkpt lat="42.70692" lon="1.41034">
        <ele>1457</ele>
        <time>2020-08-24T12:16:49Z</time>
      </trkpt>
      <trkpt lat="42.70691" lon="1.41051">
        <ele>1455</ele>
        <time>2020-08-24T12:17:04Z</time>
      </trkpt>
      <trkpt lat="42.70683" lon="1.41061">
        <ele>1453</ele>
        <time>2020-08-24T12:17:10Z</time>
      </trkpt>
      <trkpt lat="42.70675" lon="1.41068">
        <ele>1449</ele>
        <time>2020-08-24T12:17:24Z</time>
      </trkpt>
      <trkpt lat="42.70679" lon="1.4108">
        <ele>1442</ele>
        <time>2020-08-24T12:17:37Z</time>
      </trkpt>
      <trkpt lat="42.70684" lon="1.41067">
        <ele>1439</ele>
        <time>2020-08-24T12:18:10Z</time>
      </trkpt>
      <trkpt lat="42.70687" lon="1.4108">
        <ele>1440</ele>
        <time>2020-08-24T12:19:20Z</time>
      </trkpt>
      <trkpt lat="42.70688" lon="1.41093">
        <ele>1442</ele>
        <time>2020-08-24T12:19:24Z</time>
      </trkpt>
      <trkpt lat="42.70692" lon="1.41105">
        <ele>1439</ele>
        <time>2020-08-24T12:19:27Z</time>
      </trkpt>
      <trkpt lat="42.70695" lon="1.41118">
        <ele>1442</ele>
        <time>2020-08-24T12:19:33Z</time>
      </trkpt>
      <trkpt lat="42.70697" lon="1.41131">
        <ele>1439</ele>
        <time>2020-08-24T12:19:40Z</time>
      </trkpt>
      <trkpt lat="42.70696" lon="1.41145">
        <ele>1435</ele>
        <time>2020-08-24T12:19:47Z</time>
      </trkpt>
      <trkpt lat="42.70693" lon="1.41158">
        <ele>1429</ele>
        <time>2020-08-24T12:19:56Z</time>
      </trkpt>
      <trkpt lat="42.70693" lon="1.41171">
        <ele>1428</ele>
        <time>2020-08-24T12:20:05Z</time>
      </trkpt>
      <trkpt lat="42.70694" lon="1.41184">
        <ele>1427</ele>
        <time>2020-08-24T12:20:14Z</time>
      </trkpt>
      <trkpt lat="42.70694" lon="1.41197">
        <ele>1425</ele>
        <time>2020-08-24T12:20:25Z</time>
      </trkpt>
      <trkpt lat="42.70691" lon="1.4121">
        <ele>1422</ele>
        <time>2020-08-24T12:20:36Z</time>
      </trkpt>
      <trkpt lat="42.70688" lon="1.41222">
        <ele>1422</ele>
        <time>2020-08-24T12:20:44Z</time>
      </trkpt>
      <trkpt lat="42.70684" lon="1.41234">
        <ele>1417</ele>
        <time>2020-08-24T12:20:54Z</time>
      </trkpt>
      <trkpt lat="42.7068" lon="1.41246">
        <ele>1419</ele>
        <time>2020-08-24T12:21:04Z</time>
      </trkpt>
      <trkpt lat="42.70679" lon="1.4126">
        <ele>1412</ele>
        <time>2020-08-24T12:21:12Z</time>
      </trkpt>
      <trkpt lat="42.70677" lon="1.41274">
        <ele>1409</ele>
        <time>2020-08-24T12:21:22Z</time>
      </trkpt>
      <trkpt lat="42.70672" lon="1.41286">
        <ele>1408</ele>
        <time>2020-08-24T12:21:32Z</time>
      </trkpt>
      <trkpt lat="42.70671" lon="1.41299">
        <ele>1406</ele>
        <time>2020-08-24T12:21:43Z</time>
      </trkpt>
      <trkpt lat="42.70674" lon="1.41313">
        <ele>1405</ele>
        <time>2020-08-24T12:21:51Z</time>
      </trkpt>
      <trkpt lat="42.70675" lon="1.41326">
        <ele>1402</ele>
        <time>2020-08-24T12:21:58Z</time>
      </trkpt>
      <trkpt lat="42.70678" lon="1.41339">
        <ele>1402</ele>
        <time>2020-08-24T12:22:07Z</time>
      </trkpt>
      <trkpt lat="42.70678" lon="1.41352">
        <ele>1400</ele>
        <time>2020-08-24T12:22:18Z</time>
      </trkpt>
      <trkpt lat="42.70681" lon="1.41364">
        <ele>1405</ele>
        <time>2020-08-24T12:22:28Z</time>
      </trkpt>
      <trkpt lat="42.70683" lon="1.41377">
        <ele>1404</ele>
        <time>2020-08-24T12:22:38Z</time>
      </trkpt>
      <trkpt lat="42.70688" lon="1.41389">
        <ele>1399</ele>
        <time>2020-08-24T12:22:47Z</time>
      </trkpt>
      <trkpt lat="42.70688" lon="1.41402">
        <ele>1403</ele>
        <time>2020-08-24T12:22:56Z</time>
      </trkpt>
      <trkpt lat="42.70687" lon="1.41414">
        <ele>1401</ele>
        <time>2020-08-24T12:23:06Z</time>
      </trkpt>
      <trkpt lat="42.70686" lon="1.41428">
        <ele>1396</ele>
        <time>2020-08-24T12:23:16Z</time>
      </trkpt>
      <trkpt lat="42.70682" lon="1.4144">
        <ele>1397</ele>
        <time>2020-08-24T12:23:22Z</time>
      </trkpt>
      <trkpt lat="42.70677" lon="1.41452">
        <ele>1394</ele>
        <time>2020-08-24T12:23:32Z</time>
      </trkpt>
      <trkpt lat="42.70675" lon="1.41465">
        <ele>1398</ele>
        <time>2020-08-24T12:23:40Z</time>
      </trkpt>
      <trkpt lat="42.70671" lon="1.41476">
        <ele>1391</ele>
        <time>2020-08-24T12:23:56Z</time>
      </trkpt>
      <trkpt lat="42.70672" lon="1.4149">
        <ele>1388</ele>
        <time>2020-08-24T12:24:08Z</time>
      </trkpt>
      <trkpt lat="42.70671" lon="1.41504">
        <ele>1385</ele>
        <time>2020-08-24T12:24:16Z</time>
      </trkpt>
      <trkpt lat="42.70666" lon="1.41515">
        <ele>1385</ele>
        <time>2020-08-24T12:24:24Z</time>
      </trkpt>
      <trkpt lat="42.70656" lon="1.41514">
        <ele>1389</ele>
        <time>2020-08-24T12:24:49Z</time>
      </trkpt>
      <trkpt lat="42.70644" lon="1.41524">
        <ele>1388</ele>
        <time>2020-08-24T12:25:06Z</time>
      </trkpt>
      <trkpt lat="42.70646" lon="1.41537">
        <ele>1388</ele>
        <time>2020-08-24T12:25:17Z</time>
      </trkpt>
      <trkpt lat="42.7065" lon="1.41549">
        <ele>1383</ele>
        <time>2020-08-24T12:25:26Z</time>
      </trkpt>
      <trkpt lat="42.70657" lon="1.41557">
        <ele>1383</ele>
        <time>2020-08-24T12:25:38Z</time>
      </trkpt>
      <trkpt lat="42.7066" lon="1.41569">
        <ele>1384</ele>
        <time>2020-08-24T12:25:50Z</time>
      </trkpt>
      <trkpt lat="42.70667" lon="1.41577">
        <ele>1375</ele>
        <time>2020-08-24T12:25:58Z</time>
      </trkpt>
      <trkpt lat="42.70673" lon="1.41586">
        <ele>1373</ele>
        <time>2020-08-24T12:26:07Z</time>
      </trkpt>
      <trkpt lat="42.70674" lon="1.41599">
        <ele>1374</ele>
        <time>2020-08-24T12:26:20Z</time>
      </trkpt>
      <trkpt lat="42.70671" lon="1.41611">
        <ele>1374</ele>
        <time>2020-08-24T12:26:31Z</time>
      </trkpt>
      <trkpt lat="42.70669" lon="1.41623">
        <ele>1369</ele>
        <time>2020-08-24T12:26:42Z</time>
      </trkpt>
      <trkpt lat="42.70675" lon="1.41634">
        <ele>1368</ele>
        <time>2020-08-24T12:26:53Z</time>
      </trkpt>
      <trkpt lat="42.70681" lon="1.41644">
        <ele>1366</ele>
        <time>2020-08-24T12:27:02Z</time>
      </trkpt>
      <trkpt lat="42.70685" lon="1.41656">
        <ele>1362</ele>
        <time>2020-08-24T12:27:11Z</time>
      </trkpt>
      <trkpt lat="42.70686" lon="1.41671">
        <ele>1360</ele>
        <time>2020-08-24T12:27:21Z</time>
      </trkpt>
      <trkpt lat="42.70689" lon="1.41683">
        <ele>1356</ele>
        <time>2020-08-24T12:27:29Z</time>
      </trkpt>
      <trkpt lat="42.70693" lon="1.41696">
        <ele>1353</ele>
        <time>2020-08-24T12:27:37Z</time>
      </trkpt>
      <trkpt lat="42.70699" lon="1.41707">
        <ele>1353</ele>
        <time>2020-08-24T12:27:46Z</time>
      </trkpt>
      <trkpt lat="42.70703" lon="1.41721">
        <ele>1354</ele>
        <time>2020-08-24T12:27:54Z</time>
      </trkpt>
      <trkpt lat="42.70708" lon="1.41732">
        <ele>1350</ele>
        <time>2020-08-24T12:28:01Z</time>
      </trkpt>
      <trkpt lat="42.70719" lon="1.41732">
        <ele>1341</ele>
        <time>2020-08-24T12:28:08Z</time>
      </trkpt>
      <trkpt lat="42.70728" lon="1.41729">
        <ele>1346</ele>
        <time>2020-08-24T12:28:14Z</time>
      </trkpt>
      <trkpt lat="42.70737" lon="1.41721">
        <ele>1347</ele>
        <time>2020-08-24T12:28:21Z</time>
      </trkpt>
      <trkpt lat="42.70744" lon="1.41711">
        <ele>1343</ele>
        <time>2020-08-24T12:28:30Z</time>
      </trkpt>
      <trkpt lat="42.70746" lon="1.41697">
        <ele>1340</ele>
        <time>2020-08-24T12:28:39Z</time>
      </trkpt>
      <trkpt lat="42.70749" lon="1.41685">
        <ele>1337</ele>
        <time>2020-08-24T12:28:46Z</time>
      </trkpt>
      <trkpt lat="42.70752" lon="1.41674">
        <ele>1334</ele>
        <time>2020-08-24T12:28:54Z</time>
      </trkpt>
      <trkpt lat="42.70758" lon="1.41663">
        <ele>1338</ele>
        <time>2020-08-24T12:29:03Z</time>
      </trkpt>
      <trkpt lat="42.70764" lon="1.41652">
        <ele>1334</ele>
        <time>2020-08-24T12:29:11Z</time>
      </trkpt>
      <trkpt lat="42.70769" lon="1.41641">
        <ele>1334</ele>
        <time>2020-08-24T12:29:21Z</time>
      </trkpt>
      <trkpt lat="42.70779" lon="1.4164">
        <ele>1322</ele>
        <time>2020-08-24T12:29:38Z</time>
      </trkpt>
      <trkpt lat="42.70788" lon="1.41642">
        <ele>1318</ele>
        <time>2020-08-24T12:29:45Z</time>
      </trkpt>
      <trkpt lat="42.70796" lon="1.41634">
        <ele>1314</ele>
        <time>2020-08-24T12:29:52Z</time>
      </trkpt>
      <trkpt lat="42.70801" lon="1.4162">
        <ele>1310</ele>
        <time>2020-08-24T12:29:59Z</time>
      </trkpt>
      <trkpt lat="42.70813" lon="1.41627">
        <ele>1299</ele>
        <time>2020-08-24T12:30:21Z</time>
      </trkpt>
      <trkpt lat="42.70822" lon="1.4162">
        <ele>1290</ele>
        <time>2020-08-24T12:30:39Z</time>
      </trkpt>
      <trkpt lat="42.70825" lon="1.41606">
        <ele>1292</ele>
        <time>2020-08-24T12:30:47Z</time>
      </trkpt>
      <trkpt lat="42.7083" lon="1.41595">
        <ele>1289</ele>
        <time>2020-08-24T12:30:54Z</time>
      </trkpt>
      <trkpt lat="42.70834" lon="1.41581">
        <ele>1285</ele>
        <time>2020-08-24T12:31:02Z</time>
      </trkpt>
      <trkpt lat="42.7084" lon="1.4157">
        <ele>1283</ele>
        <time>2020-08-24T12:31:15Z</time>
      </trkpt>
      <trkpt lat="42.70846" lon="1.4156">
        <ele>1276</ele>
        <time>2020-08-24T12:31:25Z</time>
      </trkpt>
      <trkpt lat="42.70851" lon="1.41549">
        <ele>1276</ele>
        <time>2020-08-24T12:31:33Z</time>
      </trkpt>
      <trkpt lat="42.70853" lon="1.41535">
        <ele>1277</ele>
        <time>2020-08-24T12:31:40Z</time>
      </trkpt>
      <trkpt lat="42.70861" lon="1.41527">
        <ele>1264</ele>
        <time>2020-08-24T12:32:20Z</time>
      </trkpt>
      <trkpt lat="42.70871" lon="1.41525">
        <ele>1258</ele>
        <time>2020-08-24T12:32:30Z</time>
      </trkpt>
      <trkpt lat="42.70881" lon="1.41526">
        <ele>1259</ele>
        <time>2020-08-24T12:32:37Z</time>
      </trkpt>
      <trkpt lat="42.70891" lon="1.41529">
        <ele>1261</ele>
        <time>2020-08-24T12:32:43Z</time>
      </trkpt>
      <trkpt lat="42.709" lon="1.41536">
        <ele>1257</ele>
        <time>2020-08-24T12:32:54Z</time>
      </trkpt>
      <trkpt lat="42.7091" lon="1.4154">
        <ele>1247</ele>
        <time>2020-08-24T12:33:22Z</time>
      </trkpt>
      <trkpt lat="42.70913" lon="1.41557">
        <ele>1243</ele>
        <time>2020-08-24T12:33:47Z</time>
      </trkpt>
      <trkpt lat="42.70908" lon="1.41568">
        <ele>1240</ele>
        <time>2020-08-24T12:33:55Z</time>
      </trkpt>
      <trkpt lat="42.70901" lon="1.41579">
        <ele>1243</ele>
        <time>2020-08-24T12:34:03Z</time>
      </trkpt>
      <trkpt lat="42.70891" lon="1.41584">
        <ele>1246</ele>
        <time>2020-08-24T12:34:13Z</time>
      </trkpt>
      <trkpt lat="42.70886" lon="1.416">
        <ele>1247</ele>
        <time>2020-08-24T12:34:36Z</time>
      </trkpt>
      <trkpt lat="42.7089" lon="1.41616">
        <ele>1239</ele>
        <time>2020-08-24T12:34:46Z</time>
      </trkpt>
      <trkpt lat="42.70895" lon="1.41627">
        <ele>1238</ele>
        <time>2020-08-24T12:34:52Z</time>
      </trkpt>
      <trkpt lat="42.70896" lon="1.4164">
        <ele>1236</ele>
        <time>2020-08-24T12:35:00Z</time>
      </trkpt>
      <trkpt lat="42.70895" lon="1.41654">
        <ele>1234</ele>
        <time>2020-08-24T12:35:08Z</time>
      </trkpt>
      <trkpt lat="42.70896" lon="1.41668">
        <ele>1230</ele>
        <time>2020-08-24T12:35:15Z</time>
      </trkpt>
      <trkpt lat="42.70897" lon="1.41681">
        <ele>1228</ele>
        <time>2020-08-24T12:35:23Z</time>
      </trkpt>
      <trkpt lat="42.70899" lon="1.41694">
        <ele>1228</ele>
        <time>2020-08-24T12:35:32Z</time>
      </trkpt>
      <trkpt lat="42.70903" lon="1.41705">
        <ele>1225</ele>
        <time>2020-08-24T12:35:45Z</time>
      </trkpt>
      <trkpt lat="42.70905" lon="1.41719">
        <ele>1224</ele>
        <time>2020-08-24T12:35:57Z</time>
      </trkpt>
      <trkpt lat="42.70907" lon="1.41732">
        <ele>1220</ele>
        <time>2020-08-24T12:36:05Z</time>
      </trkpt>
      <trkpt lat="42.70912" lon="1.41742">
        <ele>1223</ele>
        <time>2020-08-24T12:36:14Z</time>
      </trkpt>
      <trkpt lat="42.70919" lon="1.41751">
        <ele>1223</ele>
        <time>2020-08-24T12:36:24Z</time>
      </trkpt>
      <trkpt lat="42.70923" lon="1.41764">
        <ele>1216</ele>
        <time>2020-08-24T12:36:33Z</time>
      </trkpt>
      <trkpt lat="42.70931" lon="1.4177">
        <ele>1215</ele>
        <time>2020-08-24T12:36:45Z</time>
      </trkpt>
      <trkpt lat="42.70938" lon="1.41781">
        <ele>1211</ele>
        <time>2020-08-24T12:36:58Z</time>
      </trkpt>
      <trkpt lat="42.70943" lon="1.41792">
        <ele>1213</ele>
        <time>2020-08-24T12:37:06Z</time>
      </trkpt>
      <trkpt lat="42.70944" lon="1.41806">
        <ele>1211</ele>
        <time>2020-08-24T12:37:14Z</time>
      </trkpt>
      <trkpt lat="42.70943" lon="1.41819">
        <ele>1213</ele>
        <time>2020-08-24T12:37:21Z</time>
      </trkpt>
      <trkpt lat="42.70939" lon="1.4183">
        <ele>1212</ele>
        <time>2020-08-24T12:37:27Z</time>
      </trkpt>
      <trkpt lat="42.70931" lon="1.4184">
        <ele>1210</ele>
        <time>2020-08-24T12:37:33Z</time>
      </trkpt>
      <trkpt lat="42.70927" lon="1.41852">
        <ele>1208</ele>
        <time>2020-08-24T12:37:42Z</time>
      </trkpt>
      <trkpt lat="42.70924" lon="1.41864">
        <ele>1208</ele>
        <time>2020-08-24T12:37:51Z</time>
      </trkpt>
      <trkpt lat="42.70925" lon="1.41877">
        <ele>1206</ele>
        <time>2020-08-24T12:37:59Z</time>
      </trkpt>
      <trkpt lat="42.70929" lon="1.41888">
        <ele>1206</ele>
        <time>2020-08-24T12:38:06Z</time>
      </trkpt>
      <trkpt lat="42.70934" lon="1.41899">
        <ele>1208</ele>
        <time>2020-08-24T12:38:15Z</time>
      </trkpt>
      <trkpt lat="42.7094" lon="1.41909">
        <ele>1203</ele>
        <time>2020-08-24T12:38:25Z</time>
      </trkpt>
      <trkpt lat="42.70943" lon="1.41922">
        <ele>1203</ele>
        <time>2020-08-24T12:38:33Z</time>
      </trkpt>
      <trkpt lat="42.70942" lon="1.41936">
        <ele>1205</ele>
        <time>2020-08-24T12:38:43Z</time>
      </trkpt>
      <trkpt lat="42.70939" lon="1.41949">
        <ele>1204</ele>
        <time>2020-08-24T12:38:50Z</time>
      </trkpt>
      <trkpt lat="42.70935" lon="1.41961">
        <ele>1204</ele>
        <time>2020-08-24T12:38:56Z</time>
      </trkpt>
      <trkpt lat="42.70928" lon="1.41971">
        <ele>1202</ele>
        <time>2020-08-24T12:39:03Z</time>
      </trkpt>
      <trkpt lat="42.70924" lon="1.41983">
        <ele>1203</ele>
        <time>2020-08-24T12:39:11Z</time>
      </trkpt>
      <trkpt lat="42.70922" lon="1.41996">
        <ele>1200</ele>
        <time>2020-08-24T12:39:18Z</time>
      </trkpt>
      <trkpt lat="42.70918" lon="1.42009">
        <ele>1205</ele>
        <time>2020-08-24T12:39:25Z</time>
      </trkpt>
      <trkpt lat="42.70911" lon="1.42019">
        <ele>1207</ele>
        <time>2020-08-24T12:39:34Z</time>
      </trkpt>
      <trkpt lat="42.70908" lon="1.42031">
        <ele>1202</ele>
        <time>2020-08-24T12:39:44Z</time>
      </trkpt>
      <trkpt lat="42.70906" lon="1.42044">
        <ele>1201</ele>
        <time>2020-08-24T12:39:52Z</time>
      </trkpt>
      <trkpt lat="42.70908" lon="1.42058">
        <ele>1205</ele>
        <time>2020-08-24T12:39:59Z</time>
      </trkpt>
      <trkpt lat="42.7091" lon="1.42072">
        <ele>1205</ele>
        <time>2020-08-24T12:40:06Z</time>
      </trkpt>
      <trkpt lat="42.70912" lon="1.42084">
        <ele>1204</ele>
        <time>2020-08-24T12:40:13Z</time>
      </trkpt>
      <trkpt lat="42.70917" lon="1.42096">
        <ele>1205</ele>
        <time>2020-08-24T12:40:20Z</time>
      </trkpt>
      <trkpt lat="42.70924" lon="1.42107">
        <ele>1206</ele>
        <time>2020-08-24T12:40:27Z</time>
      </trkpt>
      <trkpt lat="42.70927" lon="1.4212">
        <ele>1206</ele>
        <time>2020-08-24T12:40:36Z</time>
      </trkpt>
      <trkpt lat="42.70928" lon="1.42134">
        <ele>1203</ele>
        <time>2020-08-24T12:40:45Z</time>
      </trkpt>
      <trkpt lat="42.70929" lon="1.42148">
        <ele>1204</ele>
        <time>2020-08-24T12:40:54Z</time>
      </trkpt>
      <trkpt lat="42.70934" lon="1.42159">
        <ele>1197</ele>
        <time>2020-08-24T12:41:03Z</time>
      </trkpt>
      <trkpt lat="42.7094" lon="1.42171">
        <ele>1197</ele>
        <time>2020-08-24T12:41:09Z</time>
      </trkpt>
      <trkpt lat="42.70942" lon="1.42184">
        <ele>1199</ele>
        <time>2020-08-24T12:41:17Z</time>
      </trkpt>
      <trkpt lat="42.70941" lon="1.42199">
        <ele>1202</ele>
        <time>2020-08-24T12:41:26Z</time>
      </trkpt>
      <trkpt lat="42.70941" lon="1.42212">
        <ele>1205</ele>
        <time>2020-08-24T12:41:33Z</time>
      </trkpt>
      <trkpt lat="42.7094" lon="1.42226">
        <ele>1212</ele>
        <time>2020-08-24T12:41:42Z</time>
      </trkpt>
      <trkpt lat="42.70938" lon="1.42239">
        <ele>1209</ele>
        <time>2020-08-24T12:41:51Z</time>
      </trkpt>
      <trkpt lat="42.70939" lon="1.42253">
        <ele>1210</ele>
        <time>2020-08-24T12:41:58Z</time>
      </trkpt>
      <trkpt lat="42.7094" lon="1.42266">
        <ele>1211</ele>
        <time>2020-08-24T12:42:08Z</time>
      </trkpt>
      <trkpt lat="42.70943" lon="1.42279">
        <ele>1208</ele>
        <time>2020-08-24T12:42:15Z</time>
      </trkpt>
      <trkpt lat="42.70948" lon="1.42291">
        <ele>1208</ele>
        <time>2020-08-24T12:42:22Z</time>
      </trkpt>
      <trkpt lat="42.70955" lon="1.42303">
        <ele>1207</ele>
        <time>2020-08-24T12:42:30Z</time>
      </trkpt>
      <trkpt lat="42.70959" lon="1.42315">
        <ele>1208</ele>
        <time>2020-08-24T12:42:37Z</time>
      </trkpt>
      <trkpt lat="42.70961" lon="1.4233">
        <ele>1206</ele>
        <time>2020-08-24T12:42:46Z</time>
      </trkpt>
      <trkpt lat="42.70964" lon="1.42343">
        <ele>1207</ele>
        <time>2020-08-24T12:42:54Z</time>
      </trkpt>
      <trkpt lat="42.70968" lon="1.42355">
        <ele>1201</ele>
        <time>2020-08-24T12:43:01Z</time>
      </trkpt>
      <trkpt lat="42.70972" lon="1.42369">
        <ele>1201</ele>
        <time>2020-08-24T12:43:10Z</time>
      </trkpt>
      <trkpt lat="42.70977" lon="1.4238">
        <ele>1198</ele>
        <time>2020-08-24T12:43:17Z</time>
      </trkpt>
      <trkpt lat="42.70982" lon="1.42393">
        <ele>1197</ele>
        <time>2020-08-24T12:43:24Z</time>
      </trkpt>
      <trkpt lat="42.70986" lon="1.42404">
        <ele>1192</ele>
        <time>2020-08-24T12:43:30Z</time>
      </trkpt>
      <trkpt lat="42.7099" lon="1.42418">
        <ele>1193</ele>
        <time>2020-08-24T12:43:38Z</time>
      </trkpt>
      <trkpt lat="42.70993" lon="1.4243">
        <ele>1187</ele>
        <time>2020-08-24T12:43:47Z</time>
      </trkpt>
      <trkpt lat="42.70997" lon="1.42443">
        <ele>1189</ele>
        <time>2020-08-24T12:43:55Z</time>
      </trkpt>
      <trkpt lat="42.71002" lon="1.42455">
        <ele>1180</ele>
        <time>2020-08-24T12:44:04Z</time>
      </trkpt>
      <trkpt lat="42.71008" lon="1.42466">
        <ele>1180</ele>
        <time>2020-08-24T12:44:11Z</time>
      </trkpt>
      <trkpt lat="42.71013" lon="1.42476">
        <ele>1183</ele>
        <time>2020-08-24T12:44:19Z</time>
      </trkpt>
      <trkpt lat="42.71017" lon="1.42487">
        <ele>1179</ele>
        <time>2020-08-24T12:44:25Z</time>
      </trkpt>
      <trkpt lat="42.71023" lon="1.42499">
        <ele>1181</ele>
        <time>2020-08-24T12:44:32Z</time>
      </trkpt>
      <trkpt lat="42.71029" lon="1.4251">
        <ele>1185</ele>
        <time>2020-08-24T12:44:40Z</time>
      </trkpt>
      <trkpt lat="42.71033" lon="1.42522">
        <ele>1184</ele>
        <time>2020-08-24T12:44:47Z</time>
      </trkpt>
      <trkpt lat="42.71037" lon="1.42534">
        <ele>1184</ele>
        <time>2020-08-24T12:44:55Z</time>
      </trkpt>
      <trkpt lat="42.71036" lon="1.42547">
        <ele>1183</ele>
        <time>2020-08-24T12:45:06Z</time>
      </trkpt>
      <trkpt lat="42.71039" lon="1.42558">
        <ele>1184</ele>
        <time>2020-08-24T12:45:17Z</time>
      </trkpt>
      <trkpt lat="42.71032" lon="1.42567">
        <ele>1185</ele>
        <time>2020-08-24T12:45:27Z</time>
      </trkpt>
      <trkpt lat="42.71023" lon="1.42569">
        <ele>1183</ele>
        <time>2020-08-24T12:45:35Z</time>
      </trkpt>
      <trkpt lat="42.71013" lon="1.42571">
        <ele>1181</ele>
        <time>2020-08-24T12:45:44Z</time>
      </trkpt>
      <trkpt lat="42.71006" lon="1.42579">
        <ele>1173</ele>
        <time>2020-08-24T12:45:57Z</time>
      </trkpt>
      <trkpt lat="42.71007" lon="1.42592">
        <ele>1173</ele>
        <time>2020-08-24T12:46:06Z</time>
      </trkpt>
      <trkpt lat="42.71009" lon="1.42605">
        <ele>1167</ele>
        <time>2020-08-24T12:46:17Z</time>
      </trkpt>
    </trkseg>
  </trk>
</gpx>